Observation data for Lesley on 07/19/2019      Previous  Date  Next       Current Mesonet Observations  Soil Data  Daily Summary Page  Observations in Plain Language
KLE1 190500Z 15011KT 32/18 A2985 RMK A01 T03150178  RH  044%=      5-min Rain = 0
KLE1 190501Z 15009KT 32/18 A2985 RMK A01 T03150178  RH  044%=      5-min Rain = 0
KLE1 190502Z 15010KT 32/18 A2985 RMK A01 T03150178  RH  044%=      5-min Rain = 0
KLE1 190503Z 15010KT 32/18 A2985 RMK A01 T03150178  RH  044%=      5-min Rain = 0
KLE1 190504Z 15011KT 32/18 A2985 RMK A01 T03150178  RH  044%=      5-min Rain = 0
KLE1 190505Z 15009KT 31/18 A2985 RMK A01 T03140178  RH  044%=      5-min Rain = 0
KLE1 190506Z 15011KT 31/18 A2985 RMK A01 T03140178  RH  044%=      5-min Rain = 0
KLE1 190507Z 14010G15KT 31/18 A2985 RMK A01 T03130178  RH  044%=      5-min Rain = 0
KLE1 190508Z 15012KT 31/18 A2985 RMK A01 T03130178  RH  044%=      5-min Rain = 0
KLE1 190509Z 14011KT 31/18 A2985 RMK A01 T03140178  RH  044%=      5-min Rain = 0
KLE1 190510Z 15009KT 31/18 A2985 RMK A01 T03140178  RH  044%=      5-min Rain = 0
KLE1 190511Z 14009KT 31/18 A2985 RMK A01 T03140178  RH  044%=      5-min Rain = 0
KLE1 190512Z 15009KT 31/18 A2985 RMK A01 T03130178  RH  044%=      5-min Rain = 0
KLE1 190513Z 15010KT 31/18 A2985 RMK A01 T03130178  RH  045%=      5-min Rain = 0
KLE1 190514Z 14009KT 31/18 A2985 RMK A01 T03130178  RH  045%=      5-min Rain = 0
KLE1 190515Z 14009KT 31/18 A2985 RMK A01 T03120178  RH  045%=      5-min Rain = 0
KLE1 190516Z 14009KT 31/18 A2985 RMK A01 T03110178  RH  045%=      5-min Rain = 0
KLE1 190517Z 14009KT 31/18 A2985 RMK A01 T03110178  RH  045%=      5-min Rain = 0
KLE1 190518Z 14009KT 31/18 A2985 RMK A01 T03110178  RH  045%=      5-min Rain = 0
KLE1 190519Z 15010KT 31/18 A2985 RMK A01 T03110178  RH  045%=      5-min Rain = 0
KLE1 190520Z 15009KT 31/18 A2986 RMK A01 T03100178  RH  045%=      5-min Rain = 0
KLE1 190521Z 14008KT 31/18 A2985 RMK A01 T03100178  RH  045%=      5-min Rain = 0
KLE1 190522Z 15009KT 31/18 A2985 RMK A01 T03100178  RH  045%=      5-min Rain = 0
KLE1 190523Z 15009KT 31/18 A2986 RMK A01 T03090178  RH  046%=      5-min Rain = 0
KLE1 190524Z 14009KT 31/18 A2986 RMK A01 T03090178  RH  046%=      5-min Rain = 0
KLE1 190525Z 14008KT 31/18 A2986 RMK A01 T03090178  RH  046%=      5-min Rain = 0
KLE1 190526Z 14008KT 31/18 A2986 RMK A01 T03080178  RH  046%=      5-min Rain = 0
KLE1 190527Z 14009KT 31/18 A2986 RMK A01 T03080178  RH  046%=      5-min Rain = 0
KLE1 190528Z 14009KT 31/18 A2986 RMK A01 T03080178  RH  046%=      5-min Rain = 0
KLE1 190529Z 14009KT 31/18 A2986 RMK A01 T03080178  RH  046%=      5-min Rain = 0
KLE1 190530Z 14010KT 31/18 A2986 RMK A01 T03080178  RH  046%=      5-min Rain = 0
KLE1 190531Z 15010KT 31/18 A2986 RMK A01 T03080178  RH  046%=      5-min Rain = 0
KLE1 190532Z 15010KT 31/18 A2986 RMK A01 T03090178  RH  046%=      5-min Rain = 0
KLE1 190533Z 14011KT 31/18 A2986 RMK A01 T03090179  RH  046%=      5-min Rain = 0
KLE1 190534Z 14011G16KT 31/18 A2986 RMK A01 T03090178  RH  046%=      5-min Rain = 0
KLE1 190535Z 15011KT 31/18 A2986 RMK A01 T03090179  RH  046%=      5-min Rain = 0
KLE1 190536Z 15009KT 31/18 A2986 RMK A01 T03090179  RH  046%=      5-min Rain = 0
KLE1 190537Z 15010KT 31/18 A2986 RMK A01 T03080179  RH  046%=      5-min Rain = 0
KLE1 190538Z 15009KT 31/18 A2986 RMK A01 T03080179  RH  046%=      5-min Rain = 0
KLE1 190539Z 14010KT 31/18 A2986 RMK A01 T03080179  RH  046%=      5-min Rain = 0
KLE1 190540Z 15010KT 31/18 A2986 RMK A01 T03080179  RH  046%=      5-min Rain = 0
KLE1 190541Z 15008KT 31/18 A2986 RMK A01 T03080179  RH  046%=      5-min Rain = 0
KLE1 190542Z 14007KT 31/18 A2986 RMK A01 T03080179  RH  046%=      5-min Rain = 0
KLE1 190543Z 14008KT 31/18 A2986 RMK A01 T03070179  RH  046%=      5-min Rain = 0
KLE1 190544Z 14008KT 31/18 A2986 RMK A01 T03060179  RH  047%=      5-min Rain = 0
KLE1 190545Z 15009KT 31/18 A2986 RMK A01 T03060179  RH  047%=      5-min Rain = 0
KLE1 190546Z 15008KT 31/18 A2986 RMK A01 T03050179  RH  047%=      5-min Rain = 0
KLE1 190547Z 14008KT 31/18 A2986 RMK A01 T03050179  RH  047%=      5-min Rain = 0
KLE1 190548Z 14008KT 30/18 A2986 RMK A01 T03040179  RH  047%=      5-min Rain = 0
KLE1 190549Z 15010KT 30/18 A2986 RMK A01 T03040179  RH  047%=      5-min Rain = 0
KLE1 190550Z 14008KT 31/18 A2986 RMK A01 T03050180  RH  047%=      5-min Rain = 0
KLE1 190551Z 14009KT 30/18 A2986 RMK A01 T03040180  RH  047%=      5-min Rain = 0
KLE1 190552Z 15008KT 31/18 A2986 RMK A01 T03050180  RH  047%=      5-min Rain = 0
KLE1 190553Z 14010KT 30/18 A2986 RMK A01 T03040180  RH  047%=      5-min Rain = 0
KLE1 190554Z 14009KT 30/18 A2986 RMK A01 T03040180  RH  047%=      5-min Rain = 0
KLE1 190555Z 14009KT 30/18 A2986 RMK A01 T03040180  RH  048%=      5-min Rain = 0
KLE1 190556Z 15008KT 30/18 A2986 RMK A01 T03040180  RH  048%=      5-min Rain = 0
KLE1 190557Z 14009KT 30/18 A2986 RMK A01 T03040180  RH  048%=      5-min Rain = 0
KLE1 190558Z 15009KT 30/18 A2986 RMK A01 T03030180  RH  048%=      5-min Rain = 0
KLE1 190559Z 15009KT 30/18 A2986 RMK A01 T03030181  RH  048%=      5-min Rain = 0
KLE1 190600Z 15009KT 30/18 A2986 RMK A01 T03030181  RH  048%=      5-min Rain = 0
KLE1 190601Z 14010KT 30/18 A2986 RMK A01 T03020181  RH  048%=      5-min Rain = 0
KLE1 190602Z 15009KT 30/18 A2986 RMK A01 T03030181  RH  048%=      5-min Rain = 0
KLE1 190603Z 14008KT 30/18 A2986 RMK A01 T03030181  RH  048%=      5-min Rain = 0
KLE1 190604Z 15008KT 30/18 A2986 RMK A01 T03030181  RH  048%=      5-min Rain = 0
KLE1 190605Z 14007KT 30/18 A2986 RMK A01 T03010181  RH  048%=      5-min Rain = 0
KLE1 190606Z 15009KT 30/18 A2986 RMK A01 T03010181  RH  049%=      5-min Rain = 0
KLE1 190607Z 14007KT 30/18 A2986 RMK A01 T03000181  RH  049%=      5-min Rain = 0
KLE1 190608Z 14007KT 30/18 A2986 RMK A01 T03000181  RH  049%=      5-min Rain = 0
KLE1 190609Z 15008KT 30/18 A2986 RMK A01 T02990181  RH  049%=      5-min Rain = 0
KLE1 190610Z 15008KT 30/18 A2986 RMK A01 T03000181  RH  049%=      5-min Rain = 0
KLE1 190611Z 15008KT 30/18 A2986 RMK A01 T03000182  RH  049%=      5-min Rain = 0
KLE1 190612Z 14009KT 30/18 A2986 RMK A01 T02990181  RH  049%=      5-min Rain = 0
KLE1 190613Z 14008KT 30/18 A2986 RMK A01 T02990181  RH  049%=      5-min Rain = 0
KLE1 190614Z 14008KT 30/18 A2986 RMK A01 T03000181  RH  049%=      5-min Rain = 0
KLE1 190615Z 14010KT 30/18 A2986 RMK A01 T03000182  RH  049%=      5-min Rain = 0
KLE1 190616Z 13007KT 30/18 A2986 RMK A01 T03000182  RH  049%=      5-min Rain = 0
KLE1 190617Z 15008KT 30/18 A2986 RMK A01 T03000182  RH  049%=      5-min Rain = 0
KLE1 190618Z 15008KT 30/18 A2986 RMK A01 T03000182  RH  049%=      5-min Rain = 0
KLE1 190619Z 15008KT 30/18 A2986 RMK A01 T03000182  RH  049%=      5-min Rain = 0
KLE1 190620Z 14008KT 30/18 A2986 RMK A01 T03000182  RH  049%=      5-min Rain = 0
KLE1 190621Z 15007KT 30/18 A2986 RMK A01 T03000182  RH  049%=      5-min Rain = 0
KLE1 190622Z 15007KT 30/18 A2986 RMK A01 T02990182  RH  049%=      5-min Rain = 0
KLE1 190623Z 14007KT 30/18 A2986 RMK A01 T02980182  RH  050%=      5-min Rain = 0
KLE1 190624Z 14006KT 30/18 A2986 RMK A01 T02980182  RH  050%=      5-min Rain = 0
KLE1 190625Z 14008KT 30/18 A2986 RMK A01 T02970182  RH  050%=      5-min Rain = 0
KLE1 190626Z 14007KT 30/18 A2986 RMK A01 T02970182  RH  050%=      5-min Rain = 0
KLE1 190627Z 14007KT 30/18 A2986 RMK A01 T02970182  RH  050%=      5-min Rain = 0
KLE1 190628Z 14006KT 30/18 A2986 RMK A01 T02970182  RH  050%=      5-min Rain = 0
KLE1 190629Z 14006KT 30/18 A2986 RMK A01 T02960182  RH  050%=      5-min Rain = 0
KLE1 190630Z 14006KT 30/18 A2986 RMK A01 T02950182  RH  050%=      5-min Rain = 0
KLE1 190631Z 14005KT 30/18 A2986 RMK A01 T02950182  RH  051%=      5-min Rain = 0
KLE1 190632Z 13005KT 30/18 A2986 RMK A01 T02950182  RH  051%=      5-min Rain = 0
KLE1 190633Z 14007KT 29/18 A2986 RMK A01 T02940182  RH  051%=      5-min Rain = 0
KLE1 190634Z 13006KT 29/18 A2986 RMK A01 T02930182  RH  051%=      5-min Rain = 0
KLE1 190635Z 14005KT 29/18 A2986 RMK A01 T02930182  RH  051%=      5-min Rain = 0
KLE1 190636Z 14006KT 29/18 A2986 RMK A01 T02930182  RH  051%=      5-min Rain = 0
KLE1 190637Z 13005KT 29/18 A2986 RMK A01 T02930182  RH  051%=      5-min Rain = 0
KLE1 190638Z 12005KT 29/18 A2986 RMK A01 T02930182  RH  051%=      5-min Rain = 0
KLE1 190639Z 13005KT 29/18 A2986 RMK A01 T02920182  RH  051%=      5-min Rain = 0
KLE1 190640Z 14005KT 29/18 A2986 RMK A01 T02910182  RH  052%=      5-min Rain = 0
KLE1 190641Z 14007KT 29/18 A2986 RMK A01 T02900181  RH  052%=      5-min Rain = 0
KLE1 190642Z 14006KT 29/18 A2986 RMK A01 T02910181  RH  052%=      5-min Rain = 0
KLE1 190643Z 13004KT 29/18 A2986 RMK A01 T02920182  RH  051%=      5-min Rain = 0
KLE1 190644Z 14005KT 29/18 A2986 RMK A01 T02920182  RH  051%=      5-min Rain = 0
KLE1 190645Z 14005KT 29/18 A2986 RMK A01 T02920182  RH  051%=      5-min Rain = 0
KLE1 190646Z 14005KT 29/18 A2986 RMK A01 T02920182  RH  052%=      5-min Rain = 0
KLE1 190647Z 13004KT 29/18 A2986 RMK A01 T02910182  RH  052%=      5-min Rain = 0
KLE1 190648Z 14005KT 29/18 A2986 RMK A01 T02910182  RH  052%=      5-min Rain = 0
KLE1 190649Z 14005KT 29/18 A2986 RMK A01 T02910182  RH  052%=      5-min Rain = 0
KLE1 190650Z 14005KT 29/18 A2986 RMK A01 T02910182  RH  052%=      5-min Rain = 0
KLE1 190651Z 14005KT 29/18 A2986 RMK A01 T02910182  RH  052%=      5-min Rain = 0
KLE1 190652Z 14005KT 29/18 A2986 RMK A01 T02910182  RH  052%=      5-min Rain = 0
KLE1 190653Z 12004KT 29/18 A2986 RMK A01 T02910182  RH  052%=      5-min Rain = 0
KLE1 190654Z 12003KT 29/18 A2986 RMK A01 T02910182  RH  052%=      5-min Rain = 0
KLE1 190655Z 12004KT 29/18 A2986 RMK A01 T02910182  RH  052%=      5-min Rain = 0
KLE1 190656Z 13004KT 29/18 A2986 RMK A01 T02910181  RH  052%=      5-min Rain = 0
KLE1 190657Z 12004KT 29/18 A2986 RMK A01 T02910182  RH  052%=      5-min Rain = 0
KLE1 190658Z 12003KT 29/18 A2986 RMK A01 T02910182  RH  052%=      5-min Rain = 0
KLE1 190659Z 13004KT 29/18 A2987 RMK A01 T02910181  RH  052%=      5-min Rain = 0
KLE1 190700Z 13003KT 29/18 A2987 RMK A01 T02900181  RH  052%=      5-min Rain = 0
KLE1 190701Z 11003KT 29/18 A2987 RMK A01 T02900181  RH  052%=      5-min Rain = 0
KLE1 190702Z 13003KT 29/18 A2987 RMK A01 T02900181  RH  052%=      5-min Rain = 0
KLE1 190703Z 12004KT 29/18 A2987 RMK A01 T02900181  RH  052%=      5-min Rain = 0
KLE1 190704Z 12004KT 29/18 A2987 RMK A01 T02900182  RH  052%=      5-min Rain = 0
KLE1 190705Z 13004KT 29/18 A2987 RMK A01 T02890182  RH  052%=      5-min Rain = 0
KLE1 190706Z 11004KT 29/18 A2987 RMK A01 T02890182  RH  052%=      5-min Rain = 0
KLE1 190707Z 12004KT 29/18 A2987 RMK A01 T02880182  RH  053%=      5-min Rain = 0
KLE1 190708Z 11004KT 29/18 A2987 RMK A01 T02880182  RH  053%=      5-min Rain = 0
KLE1 190709Z 13004KT 29/18 A2987 RMK A01 T02870182  RH  053%=      5-min Rain = 0
KLE1 190710Z 13005KT 29/18 A2987 RMK A01 T02860181  RH  053%=      5-min Rain = 0
KLE1 190711Z 13005KT 29/18 A2987 RMK A01 T02860181  RH  053%=      5-min Rain = 0
KLE1 190712Z 12005KT 29/18 A2987 RMK A01 T02860182  RH  053%=      5-min Rain = 0
KLE1 190713Z 13005KT 29/18 A2987 RMK A01 T02870181  RH  053%=      5-min Rain = 0
KLE1 190714Z 13006KT 29/18 A2987 RMK A01 T02880182  RH  053%=      5-min Rain = 0
KLE1 190715Z 13005KT 29/18 A2987 RMK A01 T02880182  RH  053%=      5-min Rain = 0
KLE1 190716Z 13006KT 29/18 A2987 RMK A01 T02880182  RH  053%=      5-min Rain = 0
KLE1 190717Z 13005KT 29/18 A2987 RMK A01 T02880181  RH  052%=      5-min Rain = 0
KLE1 190718Z 13006KT 29/18 A2987 RMK A01 T02890182  RH  052%=      5-min Rain = 0
KLE1 190719Z 13005KT 29/18 A2987 RMK A01 T02880182  RH  053%=      5-min Rain = 0
KLE1 190720Z 13005KT 29/18 A2987 RMK A01 T02870181  RH  053%=      5-min Rain = 0
KLE1 190721Z 13005KT 29/18 A2987 RMK A01 T02850181  RH  053%=      5-min Rain = 0
KLE1 190722Z 13006KT 29/18 A2987 RMK A01 T02850181  RH  053%=      5-min Rain = 0
KLE1 190723Z 13005KT 29/18 A2987 RMK A01 T02850181  RH  054%=      5-min Rain = 0
KLE1 190724Z 14006KT 28/18 A2987 RMK A01 T02840181  RH  054%=      5-min Rain = 0
KLE1 190725Z 14007KT 28/18 A2987 RMK A01 T02840181  RH  054%=      5-min Rain = 0
KLE1 190726Z 13006KT 29/18 A2987 RMK A01 T02860181  RH  053%=      5-min Rain = 0
KLE1 190727Z 12005KT 29/18 A2987 RMK A01 T02870182  RH  053%=      5-min Rain = 0
KLE1 190728Z 14006KT 29/18 A2987 RMK A01 T02860181  RH  053%=      5-min Rain = 0
KLE1 190729Z 12006KT 29/18 A2987 RMK A01 T02850181  RH  053%=      5-min Rain = 0
KLE1 190730Z 13006KT 28/18 A2987 RMK A01 T02840181  RH  054%=      5-min Rain = 0
KLE1 190731Z 14007KT 28/18 A2987 RMK A01 T02840181  RH  054%=      5-min Rain = 0
KLE1 190732Z 13005KT 28/18 A2987 RMK A01 T02840181  RH  054%=      5-min Rain = 0
KLE1 190733Z 13006KT 28/18 A2987 RMK A01 T02840181  RH  053%=      5-min Rain = 0
KLE1 190734Z 13007KT 29/18 A2987 RMK A01 T02850181  RH  053%=      5-min Rain = 0
KLE1 190735Z 14008KT 29/18 A2987 RMK A01 T02850180  RH  053%=      5-min Rain = 0
KLE1 190736Z 14008KT 29/18 A2987 RMK A01 T02860181  RH  053%=      5-min Rain = 0
KLE1 190737Z 13007KT 29/18 A2987 RMK A01 T02880181  RH  052%=      5-min Rain = 0
KLE1 190738Z 13006KT 29/18 A2987 RMK A01 T02880181  RH  052%=      5-min Rain = 0
KLE1 190739Z 13007KT 29/18 A2987 RMK A01 T02880181  RH  052%=      5-min Rain = 0
KLE1 190740Z 14006KT 29/18 A2987 RMK A01 T02880181  RH  052%=      5-min Rain = 0
KLE1 190741Z 14008KT 29/18 A2987 RMK A01 T02870181  RH  053%=      5-min Rain = 0
KLE1 190742Z 14007KT 29/18 A2987 RMK A01 T02860180  RH  053%=      5-min Rain = 0
KLE1 190743Z 13007KT 29/18 A2987 RMK A01 T02870180  RH  053%=      5-min Rain = 0
KLE1 190744Z 15007KT 29/18 A2987 RMK A01 T02870180  RH  052%=      5-min Rain = 0
KLE1 190745Z 14006KT 29/18 A2987 RMK A01 T02870180  RH  052%=      5-min Rain = 0
KLE1 190746Z 14008KT 29/18 A2987 RMK A01 T02870180  RH  052%=      5-min Rain = 0
KLE1 190747Z 13006KT 29/18 A2987 RMK A01 T02870181  RH  052%=      5-min Rain = 0
KLE1 190748Z 14007KT 29/18 A2987 RMK A01 T02860180  RH  053%=      5-min Rain = 0
KLE1 190749Z 14007KT 29/18 A2987 RMK A01 T02850180  RH  053%=      5-min Rain = 0
KLE1 190750Z 14007KT 29/18 A2987 RMK A01 T02850180  RH  053%=      5-min Rain = 0
KLE1 190751Z 14006KT 29/18 A2987 RMK A01 T02850180  RH  053%=      5-min Rain = 0
KLE1 190752Z 14006KT 29/18 A2987 RMK A01 T02850180  RH  053%=      5-min Rain = 0
KLE1 190753Z 14006KT 29/18 A2987 RMK A01 T02850180  RH  053%=      5-min Rain = 0
KLE1 190754Z 14006KT 28/18 A2987 RMK A01 T02840180  RH  053%=      5-min Rain = 0
KLE1 190755Z 14006KT 28/18 A2987 RMK A01 T02840180  RH  053%=      5-min Rain = 0
KLE1 190756Z 14006KT 28/18 A2987 RMK A01 T02830180  RH  053%=      5-min Rain = 0
KLE1 190757Z 14006KT 28/18 A2987 RMK A01 T02830180  RH  053%=      5-min Rain = 0
KLE1 190758Z 15007KT 28/18 A2987 RMK A01 T02830180  RH  053%=      5-min Rain = 0
KLE1 190759Z 14006KT 28/18 A2987 RMK A01 T02830179  RH  053%=      5-min Rain = 0
KLE1 190800Z 14007KT 28/18 A2987 RMK A01 T02830179  RH  053%=      5-min Rain = 0
KLE1 190801Z 14006KT 28/18 A2987 RMK A01 T02840179  RH  053%=      5-min Rain = 0
KLE1 190802Z 14006KT 28/18 A2987 RMK A01 T02840179  RH  053%=      5-min Rain = 0
KLE1 190803Z 14006KT 28/18 A2987 RMK A01 T02840179  RH  053%=      5-min Rain = 0
KLE1 190804Z 14006KT 29/18 A2987 RMK A01 T02850179  RH  053%=      5-min Rain = 0
KLE1 190805Z 14006KT 29/18 A2987 RMK A01 T02850179  RH  053%=      5-min Rain = 0
KLE1 190806Z 14006KT 28/18 A2987 RMK A01 T02840179  RH  053%=      5-min Rain = 0
KLE1 190807Z 14006KT 28/18 A2987 RMK A01 T02840179  RH  053%=      5-min Rain = 0
KLE1 190808Z 14006KT 28/18 A2987 RMK A01 T02840179  RH  053%=      5-min Rain = 0
KLE1 190809Z 14006KT 28/18 A2987 RMK A01 T02830179  RH  053%=      5-min Rain = 0
KLE1 190810Z 14006KT 28/18 A2987 RMK A01 T02820179  RH  053%=      5-min Rain = 0
KLE1 190811Z 14006KT 28/18 A2987 RMK A01 T02820178  RH  053%=      5-min Rain = 0
KLE1 190812Z 14006KT 28/18 A2987 RMK A01 T02820178  RH  053%=      5-min Rain = 0
KLE1 190813Z 14006KT 28/18 A2987 RMK A01 T02820178  RH  053%=      5-min Rain = 0
KLE1 190814Z 15006KT 28/18 A2987 RMK A01 T02830178  RH  053%=      5-min Rain = 0
KLE1 190815Z 15006KT 28/18 A2987 RMK A01 T02830178  RH  053%=      5-min Rain = 0
KLE1 190816Z 16006KT 28/18 A2987 RMK A01 T02830178  RH  053%=      5-min Rain = 0
KLE1 190817Z 14006KT 28/18 A2987 RMK A01 T02830178  RH  053%=      5-min Rain = 0
KLE1 190818Z 14006KT 28/18 A2987 RMK A01 T02830178  RH  053%=      5-min Rain = 0
KLE1 190819Z 14006KT 28/18 A2987 RMK A01 T02830178  RH  053%=      5-min Rain = 0
KLE1 190820Z 14006KT 28/18 A2987 RMK A01 T02820178  RH  053%=      5-min Rain = 0
KLE1 190821Z 15006KT 28/18 A2987 RMK A01 T02800178  RH  054%=      5-min Rain = 0
KLE1 190822Z 14006KT 28/18 A2987 RMK A01 T02800178  RH  054%=      5-min Rain = 0
KLE1 190823Z 14007KT 28/18 A2987 RMK A01 T02800178  RH  054%=      5-min Rain = 0
KLE1 190824Z 14006KT 28/18 A2987 RMK A01 T02800178  RH  054%=      5-min Rain = 0
KLE1 190825Z 15006KT 28/18 A2987 RMK A01 T02800178  RH  054%=      5-min Rain = 0
KLE1 190826Z 14006KT 28/18 A2987 RMK A01 T02800178  RH  054%=      5-min Rain = 0
KLE1 190827Z 14006KT 28/18 A2987 RMK A01 T02800178  RH  054%=      5-min Rain = 0
KLE1 190828Z 14005KT 28/18 A2987 RMK A01 T02790177  RH  054%=      5-min Rain = 0
KLE1 190829Z 14006KT 28/18 A2987 RMK A01 T02790177  RH  054%=      5-min Rain = 0
KLE1 190830Z 14006KT 28/18 A2987 RMK A01 T02790178  RH  054%=      5-min Rain = 0
KLE1 190831Z 14006KT 28/18 A2987 RMK A01 T02780178  RH  054%=      5-min Rain = 0
KLE1 190832Z 15006KT 28/18 A2987 RMK A01 T02780178  RH  054%=      5-min Rain = 0
KLE1 190833Z 14006KT 28/18 A2987 RMK A01 T02770177  RH  055%=      5-min Rain = 0
KLE1 190834Z 15006KT 28/18 A2987 RMK A01 T02760177  RH  055%=      5-min Rain = 0
KLE1 190835Z 14006KT 28/18 A2987 RMK A01 T02760177  RH  055%=      5-min Rain = 0
KLE1 190836Z 15008KT 28/18 A2987 RMK A01 T02770176  RH  054%=      5-min Rain = 0
KLE1 190837Z 14006KT 28/18 A2987 RMK A01 T02780177  RH  054%=      5-min Rain = 0
KLE1 190838Z 14007KT 28/18 A2987 RMK A01 T02790177  RH  054%=      5-min Rain = 0
KLE1 190839Z 15006KT 28/18 A2987 RMK A01 T02780177  RH  054%=      5-min Rain = 0
KLE1 190840Z 15007KT 28/18 A2987 RMK A01 T02780177  RH  054%=      5-min Rain = 0
KLE1 190841Z 15006KT 28/18 A2987 RMK A01 T02770176  RH  054%=      5-min Rain = 0
KLE1 190842Z 14006KT 28/18 A2987 RMK A01 T02770177  RH  054%=      5-min Rain = 0
KLE1 190843Z 15005KT 28/18 A2987 RMK A01 T02770177  RH  054%=      5-min Rain = 0
KLE1 190844Z 14006KT 28/18 A2987 RMK A01 T02770177  RH  054%=      5-min Rain = 0
KLE1 190845Z 14006KT 28/18 A2987 RMK A01 T02760177  RH  054%=      5-min Rain = 0
KLE1 190846Z 14006KT 28/18 A2987 RMK A01 T02770177  RH  055%=      5-min Rain = 0
KLE1 190847Z 15005KT 28/18 A2987 RMK A01 T02760177  RH  055%=      5-min Rain = 0
KLE1 190848Z 15005KT 28/18 A2987 RMK A01 T02760177  RH  055%=      5-min Rain = 0
KLE1 190849Z 15005KT 28/18 A2987 RMK A01 T02760176  RH  055%=      5-min Rain = 0
KLE1 190850Z 14004KT 28/18 A2987 RMK A01 T02750176  RH  055%=      5-min Rain = 0
KLE1 190851Z 15005KT 28/18 A2987 RMK A01 T02750177  RH  055%=      5-min Rain = 0
KLE1 190852Z 15005KT 27/18 A2987 RMK A01 T02740176  RH  055%=      5-min Rain = 0
KLE1 190853Z 15005KT 27/18 A2987 RMK A01 T02730176  RH  055%=      5-min Rain = 0
KLE1 190854Z 15005KT 27/18 A2987 RMK A01 T02730175  RH  055%=      5-min Rain = 0
KLE1 190855Z 15005KT 27/18 A2987 RMK A01 T02730175  RH  055%=      5-min Rain = 0
KLE1 190856Z 14005KT 27/18 A2987 RMK A01 T02740176  RH  055%=      5-min Rain = 0
KLE1 190857Z 15006KT 28/18 A2987 RMK A01 T02750175  RH  055%=      5-min Rain = 0
KLE1 190858Z 15006KT 28/18 A2987 RMK A01 T02750175  RH  055%=      5-min Rain = 0
KLE1 190859Z 15005KT 28/18 A2987 RMK A01 T02750176  RH  055%=      5-min Rain = 0
KLE1 190900Z 14005KT 28/18 A2987 RMK A01 T02750176  RH  055%=      5-min Rain = 0
KLE1 190901Z 14005KT 28/18 A2987 RMK A01 T02750176  RH  055%=      5-min Rain = 0
KLE1 190902Z 14005KT 27/18 A2987 RMK A01 T02740175  RH  055%=      5-min Rain = 0
KLE1 190903Z 14005KT 27/18 A2987 RMK A01 T02730175  RH  055%=      5-min Rain = 0
KLE1 190904Z 15005KT 27/18 A2987 RMK A01 T02720175  RH  055%=      5-min Rain = 0
KLE1 190905Z 14005KT 27/18 A2987 RMK A01 T02720175  RH  055%=      5-min Rain = 0
KLE1 190906Z 13005KT 27/18 A2987 RMK A01 T02720175  RH  055%=      5-min Rain = 0
KLE1 190907Z 14005KT 27/18 A2987 RMK A01 T02720175  RH  055%=      5-min Rain = 0
KLE1 190908Z 15006KT 27/18 A2987 RMK A01 T02720175  RH  055%=      5-min Rain = 0
KLE1 190909Z 15004KT 27/17 A2987 RMK A01 T02720174  RH  055%=      5-min Rain = 0
KLE1 190910Z 14005KT 27/18 A2987 RMK A01 T02730175  RH  055%=      5-min Rain = 0
KLE1 190911Z 14005KT 27/18 A2987 RMK A01 T02740175  RH  055%=      5-min Rain = 0
KLE1 190912Z 14005KT 27/18 A2987 RMK A01 T02740175  RH  055%=      5-min Rain = 0
KLE1 190913Z 14005KT 27/18 A2987 RMK A01 T02740175  RH  055%=      5-min Rain = 0
KLE1 190914Z 14005KT 27/18 A2987 RMK A01 T02730175  RH  055%=      5-min Rain = 0
KLE1 190915Z 14005KT 27/18 A2987 RMK A01 T02720175  RH  055%=      5-min Rain = 0
KLE1 190916Z 14005KT 27/18 A2987 RMK A01 T02720175  RH  055%=      5-min Rain = 0
KLE1 190917Z 14005KT 27/18 A2987 RMK A01 T02730175  RH  055%=      5-min Rain = 0
KLE1 190918Z 14005KT 27/18 A2987 RMK A01 T02730175  RH  055%=      5-min Rain = 0
KLE1 190919Z 14005KT 27/17 A2987 RMK A01 T02720174  RH  055%=      5-min Rain = 0
KLE1 190920Z 14005KT 27/18 A2987 RMK A01 T02720175  RH  055%=      5-min Rain = 0
KLE1 190921Z 14005KT 27/17 A2987 RMK A01 T02710174  RH  055%=      5-min Rain = 0
KLE1 190922Z 14005KT 27/17 A2987 RMK A01 T02710174  RH  055%=      5-min Rain = 0
KLE1 190923Z 13004KT 27/17 A2987 RMK A01 T02710174  RH  055%=      5-min Rain = 0
KLE1 190924Z 13004KT 27/17 A2987 RMK A01 T02710174  RH  055%=      5-min Rain = 0
KLE1 190925Z 13004KT 27/17 A2987 RMK A01 T02710174  RH  055%=      5-min Rain = 0
KLE1 190926Z 12004KT 27/17 A2987 RMK A01 T02710174  RH  055%=      5-min Rain = 0
KLE1 190927Z 14003KT 27/17 A2987 RMK A01 T02720174  RH  055%=      5-min Rain = 0
KLE1 190928Z 15005KT 27/17 A2987 RMK A01 T02710174  RH  055%=      5-min Rain = 0
KLE1 190929Z 14004KT 27/17 A2987 RMK A01 T02720172  RH  054%=      5-min Rain = 0
KLE1 190930Z 13003KT 27/17 A2987 RMK A01 T02740173  RH  054%=      5-min Rain = 0
KLE1 190931Z 14003KT 27/17 A2987 RMK A01 T02740173  RH  054%=      5-min Rain = 0
KLE1 190932Z 14003KT 27/17 A2987 RMK A01 T02740173  RH  054%=      5-min Rain = 0
KLE1 190933Z 14003KT 27/17 A2987 RMK A01 T02730173  RH  054%=      5-min Rain = 0
KLE1 190934Z 14004KT 27/17 A2987 RMK A01 T02740173  RH  054%=      5-min Rain = 0
KLE1 190935Z 15003KT 27/17 A2987 RMK A01 T02740173  RH  054%=      5-min Rain = 0
KLE1 190936Z 15003KT 27/17 A2987 RMK A01 T02740172  RH  054%=      5-min Rain = 0
KLE1 190937Z 15003KT 27/17 A2987 RMK A01 T02740172  RH  053%=      5-min Rain = 0
KLE1 190938Z 16004KT 28/17 A2987 RMK A01 T02750171  RH  053%=      5-min Rain = 0
KLE1 190939Z 15004KT 28/17 A2987 RMK A01 T02760171  RH  053%=      5-min Rain = 0
KLE1 190940Z 15003KT 28/17 A2987 RMK A01 T02770171  RH  053%=      5-min Rain = 0
KLE1 190941Z 16004KT 28/17 A2987 RMK A01 T02770171  RH  052%=      5-min Rain = 0
KLE1 190942Z 17004KT 28/17 A2987 RMK A01 T02770171  RH  052%=      5-min Rain = 0
KLE1 190943Z 17005KT 28/17 A2987 RMK A01 T02780170  RH  052%=      5-min Rain = 0
KLE1 190944Z 16005KT 28/17 A2987 RMK A01 T02770170  RH  052%=      5-min Rain = 0
KLE1 190945Z 17006KT 28/17 A2987 RMK A01 T02770169  RH  052%=      5-min Rain = 0
KLE1 190946Z 17006KT 28/17 A2987 RMK A01 T02770169  RH  052%=      5-min Rain = 0
KLE1 190947Z 17006KT 28/17 A2987 RMK A01 T02770168  RH  052%=      5-min Rain = 0
KLE1 190948Z 18006KT 28/17 A2987 RMK A01 T02770166  RH  051%=      5-min Rain = 0
KLE1 190949Z 17006KT 28/17 A2987 RMK A01 T02780166  RH  050%=      5-min Rain = 0
KLE1 190950Z 17006KT 28/17 A2987 RMK A01 T02790167  RH  050%=      5-min Rain = 0
KLE1 190951Z 17006KT 28/17 A2987 RMK A01 T02790167  RH  050%=      5-min Rain = 0
KLE1 190952Z 17005KT 28/17 A2987 RMK A01 T02790166  RH  050%=      5-min Rain = 0
KLE1 190953Z 18006KT 28/17 A2987 RMK A01 T02790166  RH  050%=      5-min Rain = 0
KLE1 190954Z 17006KT 28/17 A2987 RMK A01 T02780165  RH  050%=      5-min Rain = 0
KLE1 190955Z 17005KT 28/17 A2987 RMK A01 T02780166  RH  050%=      5-min Rain = 0
KLE1 190956Z 16005KT 28/17 A2987 RMK A01 T02770166  RH  051%=      5-min Rain = 0
KLE1 190957Z 16005KT 28/17 A2987 RMK A01 T02760165  RH  051%=      5-min Rain = 0
KLE1 190958Z 15005KT 28/17 A2987 RMK A01 T02750165  RH  051%=      5-min Rain = 0
KLE1 190959Z 15005KT 27/17 A2987 RMK A01 T02740168  RH  052%=      5-min Rain = 0
KLE1 191000Z 16005KT 27/17 A2987 RMK A01 T02730169  RH  053%=      5-min Rain = 0
KLE1 191001Z 15004KT 27/17 A2987 RMK A01 T02720167  RH  053%=      5-min Rain = 0
KLE1 191002Z 15005KT 27/17 A2987 RMK A01 T02720167  RH  053%=      5-min Rain = 0
KLE1 191003Z 16005KT 27/17 A2987 RMK A01 T02720167  RH  053%=      5-min Rain = 0
KLE1 191004Z 16005KT 27/17 A2987 RMK A01 T02720166  RH  053%=      5-min Rain = 0
KLE1 191005Z 16005KT 27/17 A2987 RMK A01 T02730166  RH  052%=      5-min Rain = 0
KLE1 191006Z 17006KT 27/16 A2987 RMK A01 T02740164  RH  051%=      5-min Rain = 0
KLE1 191007Z 17006KT 28/16 A2987 RMK A01 T02750164  RH  051%=      5-min Rain = 0
KLE1 191008Z 17005KT 28/17 A2987 RMK A01 T02760165  RH  051%=      5-min Rain = 0
KLE1 191009Z 17004KT 28/17 A2987 RMK A01 T02760165  RH  051%=      5-min Rain = 0
KLE1 191010Z 17006KT 28/16 A2987 RMK A01 T02760163  RH  050%=      5-min Rain = 0
KLE1 191011Z 18006KT 28/16 A2987 RMK A01 T02780163  RH  050%=      5-min Rain = 0
KLE1 191012Z 18005KT 28/16 A2987 RMK A01 T02780163  RH  050%=      5-min Rain = 0
KLE1 191013Z 18005KT 28/16 A2987 RMK A01 T02780164  RH  050%=      5-min Rain = 0
KLE1 191014Z 18005KT 28/16 A2987 RMK A01 T02770164  RH  050%=      5-min Rain = 0
KLE1 191015Z 18005KT 28/16 A2987 RMK A01 T02760164  RH  050%=      5-min Rain = 0
KLE1 191016Z 18006KT 28/16 A2987 RMK A01 T02750163  RH  050%=      5-min Rain = 0
KLE1 191017Z 18006KT 28/16 A2987 RMK A01 T02750162  RH  050%=      5-min Rain = 0
KLE1 191018Z 18006KT 27/16 A2987 RMK A01 T02740161  RH  050%=      5-min Rain = 0
KLE1 191019Z 16006KT 27/16 A2987 RMK A01 T02740162  RH  050%=      5-min Rain = 0
KLE1 191020Z 17006KT 27/16 A2987 RMK A01 T02740162  RH  050%=      5-min Rain = 0
KLE1 191021Z 17006KT 27/16 A2987 RMK A01 T02740162  RH  050%=      5-min Rain = 0
KLE1 191022Z 17006KT 27/16 A2987 RMK A01 T02740160  RH  050%=      5-min Rain = 0
KLE1 191023Z 16006KT 28/16 A2987 RMK A01 T02760159  RH  049%=      5-min Rain = 0
KLE1 191024Z 13004KT 28/16 A2987 RMK A01 T02780161  RH  049%=      5-min Rain = 0
KLE1 191025Z 12004KT 28/17 A2987 RMK A01 T02760165  RH  051%=      5-min Rain = 0
KLE1 191026Z 11004KT 27/17 A2987 RMK A01 T02720167  RH  053%=      5-min Rain = 0
KLE1 191027Z 10004KT 27/17 A2987 RMK A01 T02680168  RH  054%=      5-min Rain = 0
KLE1 191028Z 10004KT 27/17 A2987 RMK A01 T02650168  RH  055%=      5-min Rain = 0
KLE1 191029Z 10004KT 26/17 A2987 RMK A01 T02620167  RH  056%=      5-min Rain = 0
KLE1 191030Z 10004KT 26/17 A2987 RMK A01 T02600168  RH  057%=      5-min Rain = 0
KLE1 191031Z 09004KT 26/17 A2987 RMK A01 T02590168  RH  057%=      5-min Rain = 0
KLE1 191032Z 09003KT 26/17 A2987 RMK A01 T02580168  RH  058%=      5-min Rain = 0
KLE1 191033Z 08004KT 26/17 A2987 RMK A01 T02570168  RH  058%=      5-min Rain = 0
KLE1 191034Z 08004KT 26/17 A2987 RMK A01 T02570168  RH  058%=      5-min Rain = 0
KLE1 191035Z 08003KT 26/17 A2987 RMK A01 T02560168  RH  058%=      5-min Rain = 0
KLE1 191036Z 07004KT 26/17 A2987 RMK A01 T02560169  RH  058%=      5-min Rain = 0
KLE1 191037Z 07004KT 26/17 A2987 RMK A01 T02560168  RH  058%=      5-min Rain = 0
KLE1 191038Z 09004KT 26/17 A2987 RMK A01 T02570168  RH  058%=      5-min Rain = 0
KLE1 191039Z 08003KT 26/17 A2987 RMK A01 T02570168  RH  058%=      5-min Rain = 0
KLE1 191040Z 08004KT 26/17 A2987 RMK A01 T02570168  RH  058%=      5-min Rain = 0
KLE1 191041Z 07003KT 26/17 A2987 RMK A01 T02570169  RH  058%=      5-min Rain = 0
KLE1 191042Z 08003KT 26/17 A2987 RMK A01 T02570169  RH  058%=      5-min Rain = 0
KLE1 191043Z 08004KT 26/17 A2987 RMK A01 T02560169  RH  058%=      5-min Rain = 0
KLE1 191044Z 09003KT 26/17 A2987 RMK A01 T02560169  RH  058%=      5-min Rain = 0
KLE1 191045Z 07003KT 26/17 A2987 RMK A01 T02570169  RH  058%=      5-min Rain = 0
KLE1 191046Z 08003KT 26/17 A2987 RMK A01 T02560169  RH  059%=      5-min Rain = 0
KLE1 191047Z 09003KT 25/17 A2987 RMK A01 T02540168  RH  059%=      5-min Rain = 0
KLE1 191048Z 09003KT 26/17 A2987 RMK A01 T02550168  RH  059%=      5-min Rain = 0
KLE1 191049Z 08004KT 26/17 A2987 RMK A01 T02560168  RH  058%=      5-min Rain = 0
KLE1 191050Z 08004KT 26/17 A2987 RMK A01 T02570169  RH  058%=      5-min Rain = 0
KLE1 191051Z 07004KT 26/17 A2987 RMK A01 T02550169  RH  059%=      5-min Rain = 0
KLE1 191052Z 08004KT 26/17 A2987 RMK A01 T02550169  RH  059%=      5-min Rain = 0
KLE1 191053Z 07004KT 25/17 A2987 RMK A01 T02540168  RH  059%=      5-min Rain = 0
KLE1 191054Z 08004KT 25/17 A2987 RMK A01 T02540168  RH  059%=      5-min Rain = 0
KLE1 191055Z 08004KT 25/17 A2988 RMK A01 T02540168  RH  059%=      5-min Rain = 0
KLE1 191056Z 09004KT 25/17 A2988 RMK A01 T02530168  RH  059%=      5-min Rain = 0
KLE1 191057Z 09004KT 25/17 A2988 RMK A01 T02530168  RH  059%=      5-min Rain = 0
KLE1 191058Z 09003KT 25/17 A2988 RMK A01 T02530168  RH  059%=      5-min Rain = 0
KLE1 191059Z 09004KT 25/17 A2988 RMK A01 T02530167  RH  059%=      5-min Rain = 0
KLE1 191100Z 10004KT 25/17 A2988 RMK A01 T02530167  RH  059%=      5-min Rain = 0
KLE1 191101Z 08004KT 25/17 A2988 RMK A01 T02520167  RH  059%=      5-min Rain = 0
KLE1 191102Z 09003KT 25/17 A2988 RMK A01 T02510167  RH  059%=      5-min Rain = 0
KLE1 191103Z 08003KT 25/17 A2988 RMK A01 T02510167  RH  059%=      5-min Rain = 0
KLE1 191104Z 08003KT 25/17 A2988 RMK A01 T02510167  RH  059%=      5-min Rain = 0
KLE1 191105Z 10004KT 25/17 A2988 RMK A01 T02510167  RH  059%=      5-min Rain = 0
KLE1 191106Z 10004KT 25/17 A2988 RMK A01 T02510167  RH  060%=      5-min Rain = 0
KLE1 191107Z 09004KT 25/17 A2988 RMK A01 T02510167  RH  060%=      5-min Rain = 0
KLE1 191108Z 10005KT 25/17 A2988 RMK A01 T02500167  RH  060%=      5-min Rain = 0
KLE1 191109Z 09004KT 25/17 A2988 RMK A01 T02500166  RH  060%=      5-min Rain = 0
KLE1 191110Z 10004KT 25/17 A2988 RMK A01 T02490167  RH  060%=      5-min Rain = 0
KLE1 191111Z 09005KT 25/17 A2988 RMK A01 T02490167  RH  060%=      5-min Rain = 0
KLE1 191112Z 09004KT 25/17 A2988 RMK A01 T02480167  RH  060%=      5-min Rain = 0
KLE1 191113Z 09005KT 25/17 A2988 RMK A01 T02480167  RH  061%=      5-min Rain = 0
KLE1 191114Z 09004KT 25/17 A2988 RMK A01 T02470166  RH  061%=      5-min Rain = 0
KLE1 191115Z 09005KT 25/17 A2988 RMK A01 T02460166  RH  061%=      5-min Rain = 0
KLE1 191116Z 09005KT 25/17 A2988 RMK A01 T02450166  RH  061%=      5-min Rain = 0
KLE1 191117Z 09005KT 25/17 A2988 RMK A01 T02450166  RH  061%=      5-min Rain = 0
KLE1 191118Z 09005KT 25/17 A2988 RMK A01 T02450166  RH  062%=      5-min Rain = 0
KLE1 191119Z 09005KT 25/17 A2988 RMK A01 T02450166  RH  062%=      5-min Rain = 0
KLE1 191120Z 09005KT 25/17 A2988 RMK A01 T02450166  RH  062%=      5-min Rain = 0
KLE1 191121Z 09005KT 25/17 A2988 RMK A01 T02450166  RH  062%=      5-min Rain = 0
KLE1 191122Z 09005KT 25/17 A2988 RMK A01 T02450166  RH  062%=      5-min Rain = 0
KLE1 191123Z 08004KT 24/17 A2988 RMK A01 T02440166  RH  061%=      5-min Rain = 0
KLE1 191124Z 09004KT 24/17 A2988 RMK A01 T02440166  RH  061%=      5-min Rain = 0
KLE1 191125Z 08004KT 25/17 A2988 RMK A01 T02450166  RH  061%=      5-min Rain = 0
KLE1 191126Z 08005KT 25/17 A2988 RMK A01 T02450166  RH  061%=      5-min Rain = 0
KLE1 191127Z 09004KT 25/17 A2988 RMK A01 T02450166  RH  062%=      5-min Rain = 0
KLE1 191128Z 09005KT 24/17 A2988 RMK A01 T02440166  RH  062%=      5-min Rain = 0
KLE1 191129Z 09005KT 24/17 A2989 RMK A01 T02440166  RH  062%=      5-min Rain = 0
KLE1 191130Z 08005KT 24/17 A2989 RMK A01 T02440165  RH  061%=      5-min Rain = 0
KLE1 191131Z 08004KT 24/17 A2989 RMK A01 T02440165  RH  061%=      5-min Rain = 0
KLE1 191132Z 08005KT 24/17 A2989 RMK A01 T02440165  RH  061%=      5-min Rain = 0
KLE1 191133Z 09005KT 24/17 A2989 RMK A01 T02440165  RH  061%=      5-min Rain = 0
KLE1 191134Z 09005KT 24/17 A2989 RMK A01 T02440165  RH  062%=      5-min Rain = 0
KLE1 191135Z 08005KT 24/17 A2989 RMK A01 T02430165  RH  062%=      5-min Rain = 0
KLE1 191136Z 08005KT 24/17 A2989 RMK A01 T02420166  RH  062%=      5-min Rain = 0
KLE1 191137Z 09005KT 24/17 A2989 RMK A01 T02420165  RH  062%=      5-min Rain = 0
KLE1 191138Z 08005KT 24/17 A2989 RMK A01 T02410165  RH  062%=      5-min Rain = 0
KLE1 191139Z 09004KT 24/17 A2989 RMK A01 T02420165  RH  062%=      5-min Rain = 0
KLE1 191140Z 09004KT 24/17 A2989 RMK A01 T02410165  RH  062%=      5-min Rain = 0
KLE1 191141Z 09005KT 24/17 A2989 RMK A01 T02410165  RH  063%=      5-min Rain = 0
KLE1 191142Z 09005KT 24/17 A2989 RMK A01 T02410166  RH  063%=      5-min Rain = 0
KLE1 191143Z 09005KT 24/17 A2989 RMK A01 T02410167  RH  063%=      5-min Rain = 0
KLE1 191144Z 09004KT 24/17 A2989 RMK A01 T02410167  RH  063%=      5-min Rain = 0
KLE1 191145Z 09005KT 24/17 A2989 RMK A01 T02410167  RH  063%=      5-min Rain = 0
KLE1 191146Z 09005KT 24/17 A2989 RMK A01 T02410167  RH  064%=      5-min Rain = 0
KLE1 191147Z 09005KT 24/17 A2989 RMK A01 T02410168  RH  064%=      5-min Rain = 0
KLE1 191148Z 09005KT 24/17 A2989 RMK A01 T02400167  RH  064%=      5-min Rain = 0
KLE1 191149Z 10005KT 24/17 A2989 RMK A01 T02400167  RH  064%=      5-min Rain = 0
KLE1 191150Z 09005KT 24/17 A2989 RMK A01 T02400167  RH  064%=      5-min Rain = 0
KLE1 191151Z 09006KT 24/17 A2989 RMK A01 T02400166  RH  063%=      5-min Rain = 0
KLE1 191152Z 09006KT 24/17 A2989 RMK A01 T02400166  RH  063%=      5-min Rain = 0
KLE1 191153Z 09005KT 24/17 A2989 RMK A01 T02410166  RH  063%=      5-min Rain = 0
KLE1 191154Z 10005KT 24/17 A2989 RMK A01 T02420166  RH  062%=      5-min Rain = 0
KLE1 191155Z 09005KT 24/17 A2989 RMK A01 T02430166  RH  062%=      5-min Rain = 0
KLE1 191156Z 09006KT 24/17 A2989 RMK A01 T02440165  RH  062%=      5-min Rain = 0
KLE1 191157Z 09005KT 24/17 A2989 RMK A01 T02440165  RH  061%=      5-min Rain = 0
KLE1 191158Z 09005KT 24/17 A2989 RMK A01 T02440166  RH  061%=      5-min Rain = 0
KLE1 191159Z 08005KT 24/17 A2989 RMK A01 T02440166  RH  062%=      5-min Rain = 0
KLE1 191200Z 09005KT 24/17 A2989 RMK A01 T02440166  RH  062%=      5-min Rain = 0
KLE1 191201Z 09004KT 24/17 A2989 RMK A01 T02430166  RH  062%=      5-min Rain = 0
KLE1 191202Z 09005KT 24/17 A2989 RMK A01 T02430166  RH  062%=      5-min Rain = 0
KLE1 191203Z 09005KT 24/17 A2989 RMK A01 T02420166  RH  062%=      5-min Rain = 0
KLE1 191204Z 10006KT 24/17 A2989 RMK A01 T02420166  RH  062%=      5-min Rain = 0
KLE1 191205Z 10005KT 24/17 A2989 RMK A01 T02430165  RH  062%=      5-min Rain = 0
KLE1 191206Z 10005KT 24/17 A2989 RMK A01 T02430165  RH  062%=      5-min Rain = 0
KLE1 191207Z 10004KT 24/17 A2989 RMK A01 T02430165  RH  061%=      5-min Rain = 0
KLE1 191208Z 11004KT 24/16 A2989 RMK A01 T02440164  RH  061%=      5-min Rain = 0
KLE1 191209Z 11004KT 25/16 A2989 RMK A01 T02450164  RH  061%=      5-min Rain = 0
KLE1 191210Z 11004KT 25/17 A2989 RMK A01 T02460165  RH  060%=      5-min Rain = 0
KLE1 191211Z 11004KT 25/16 A2989 RMK A01 T02470164  RH  060%=      5-min Rain = 0
KLE1 191212Z 11004KT 25/16 A2989 RMK A01 T02480163  RH  059%=      5-min Rain = 0
KLE1 191213Z 11003KT 25/16 A2989 RMK A01 T02490164  RH  059%=      5-min Rain = 0
KLE1 191214Z 11004KT 25/16 A2989 RMK A01 T02500164  RH  059%=      5-min Rain = 0
KLE1 191215Z 11004KT 25/16 A2989 RMK A01 T02500164  RH  059%=      5-min Rain = 0
KLE1 191216Z 12005KT 25/16 A2989 RMK A01 T02500164  RH  059%=      5-min Rain = 0
KLE1 191217Z 12005KT 25/16 A2989 RMK A01 T02510164  RH  058%=      5-min Rain = 0
KLE1 191218Z 11004KT 25/16 A2989 RMK A01 T02520163  RH  058%=      5-min Rain = 0
KLE1 191219Z 11004KT 25/16 A2989 RMK A01 T02530163  RH  058%=      5-min Rain = 0
KLE1 191220Z 11004KT 25/16 A2989 RMK A01 T02530164  RH  058%=      5-min Rain = 0
KLE1 191221Z 12003KT 25/16 A2989 RMK A01 T02540164  RH  058%=      5-min Rain = 0
KLE1 191222Z 12004KT 25/16 A2989 RMK A01 T02540164  RH  058%=      5-min Rain = 0
KLE1 191223Z 12004KT 25/16 A299 RMK A01 T02540164  RH  057%=      5-min Rain = 0
KLE1 191224Z 13004KT 26/16 A2989 RMK A01 T02560164  RH  057%=      5-min Rain = 0
KLE1 191225Z 14004KT 26/16 A2989 RMK A01 T02570164  RH  057%=      5-min Rain = 0
KLE1 191226Z 14005KT 26/16 A2989 RMK A01 T02580164  RH  056%=      5-min Rain = 0
KLE1 191227Z 14004KT 26/16 A2989 RMK A01 T02590163  RH  055%=      5-min Rain = 0
KLE1 191228Z 13004KT 26/16 A2989 RMK A01 T02610164  RH  055%=      5-min Rain = 0
KLE1 191229Z 13003KT 26/16 A2989 RMK A01 T02610164  RH  055%=      5-min Rain = 0
KLE1 191230Z 12003KT 26/16 A2989 RMK A01 T02620164  RH  055%=      5-min Rain = 0
KLE1 191231Z 13004KT 26/17 A2989 RMK A01 T02620165  RH  055%=      5-min Rain = 0
KLE1 191232Z 13004KT 26/17 A2989 RMK A01 T02630165  RH  055%=      5-min Rain = 0
KLE1 191233Z 13004KT 26/17 A2989 RMK A01 T02630165  RH  055%=      5-min Rain = 0
KLE1 191234Z 12004KT 26/17 A2989 RMK A01 T02630165  RH  055%=      5-min Rain = 0
KLE1 191235Z 12004KT 26/17 A2989 RMK A01 T02640167  RH  055%=      5-min Rain = 0
KLE1 191236Z 13004KT 27/17 A2989 RMK A01 T02650166  RH  055%=      5-min Rain = 0
KLE1 191237Z 13004KT 27/17 A2989 RMK A01 T02650166  RH  054%=      5-min Rain = 0
KLE1 191238Z 13004KT 27/17 A2989 RMK A01 T02660166  RH  054%=      5-min Rain = 0
KLE1 191239Z 14004KT 27/17 A299 RMK A01 T02660166  RH  054%=      5-min Rain = 0
KLE1 191240Z 13005KT 27/17 A299 RMK A01 T02670166  RH  054%=      5-min Rain = 0
KLE1 191241Z 13004KT 27/17 A299 RMK A01 T02670166  RH  054%=      5-min Rain = 0
KLE1 191242Z 13004KT 27/17 A2989 RMK A01 T02680167  RH  054%=      5-min Rain = 0
KLE1 191243Z 13004KT 27/17 A2989 RMK A01 T02690168  RH  054%=      5-min Rain = 0
KLE1 191244Z 13003KT 27/17 A2989 RMK A01 T02700167  RH  054%=      5-min Rain = 0
KLE1 191245Z 14004KT 27/17 A2989 RMK A01 T02700167  RH  053%=      5-min Rain = 0
KLE1 191246Z 13003KT 27/17 A2989 RMK A01 T02710168  RH  053%=      5-min Rain = 0
KLE1 191247Z 13002KT 27/17 A2989 RMK A01 T02720169  RH  053%=      5-min Rain = 0
KLE1 191248Z 13001KT 27/17 A2989 RMK A01 T02730170  RH  053%=      5-min Rain = 0
KLE1 191249Z 13002KT 27/17 A2989 RMK A01 T02740170  RH  053%=      5-min Rain = 0
KLE1 191250Z 14003KT 28/17 A2989 RMK A01 T02750170  RH  053%=      5-min Rain = 0
KLE1 191251Z 14003KT 28/17 A2989 RMK A01 T02750167  RH  052%=      5-min Rain = 0
KLE1 191252Z 14003KT 28/17 A2989 RMK A01 T02760167  RH  051%=      5-min Rain = 0
KLE1 191253Z 14004KT 28/17 A2989 RMK A01 T02760168  RH  051%=      5-min Rain = 0
KLE1 191254Z 14004KT 28/17 A2989 RMK A01 T02770167  RH  051%=      5-min Rain = 0
KLE1 191255Z 15003KT 28/17 A2989 RMK A01 T02780166  RH  051%=      5-min Rain = 0
KLE1 191256Z 15003KT 28/17 A2989 RMK A01 T02790166  RH  050%=      5-min Rain = 0
KLE1 191257Z 16003KT 28/17 A2989 RMK A01 T02800165  RH  050%=      5-min Rain = 0
KLE1 191258Z 17003KT 28/17 A2989 RMK A01 T02800166  RH  050%=      5-min Rain = 0
KLE1 191259Z 16003KT 28/17 A2989 RMK A01 T02800166  RH  050%=      5-min Rain = 0
KLE1 191300Z 17002KT 28/17 A2989 RMK A01 T02810167  RH  050%=      5-min Rain = 0
KLE1 191301Z 17002KT 28/17 A2989 RMK A01 T02810168  RH  050%=      5-min Rain = 0
KLE1 191302Z 17003KT 28/17 A2989 RMK A01 T02820169  RH  050%=      5-min Rain = 0
KLE1 191303Z 17004KT 28/17 A2989 RMK A01 T02830166  RH  049%=      5-min Rain = 0
KLE1 191304Z 17003KT 28/17 A2989 RMK A01 T02830166  RH  049%=      5-min Rain = 0
KLE1 191305Z 16003KT 28/17 A2989 RMK A01 T02830166  RH  049%=      5-min Rain = 0
KLE1 191306Z 17004KT 28/17 A2989 RMK A01 T02840167  RH  049%=      5-min Rain = 0
KLE1 191307Z 17005KT 28/17 A2989 RMK A01 T02840167  RH  049%=      5-min Rain = 0
KLE1 191308Z 18005KT 28/17 A2989 RMK A01 T02840168  RH  049%=      5-min Rain = 0
KLE1 191309Z 18006KT 28/17 A2989 RMK A01 T02840169  RH  050%=      5-min Rain = 0
KLE1 191310Z 18006KT 29/17 A2989 RMK A01 T02860169  RH  049%=      5-min Rain = 0
KLE1 191311Z 18006KT 29/17 A299 RMK A01 T02860168  RH  049%=      5-min Rain = 0
KLE1 191312Z 18005KT 29/17 A299 RMK A01 T02870168  RH  048%=      5-min Rain = 0
KLE1 191313Z 18006KT 29/17 A299 RMK A01 T02870167  RH  048%=      5-min Rain = 0
KLE1 191314Z 18006KT 29/17 A299 RMK A01 T02880168  RH  048%=      5-min Rain = 0
KLE1 191315Z 19006G12KT 29/17 A299 RMK A01 T02880169  RH  048%=      5-min Rain = 0
KLE1 191316Z 19008KT 29/17 A299 RMK A01 T02890166  RH  048%=      5-min Rain = 0
KLE1 191317Z 19007KT 29/17 A299 RMK A01 T02890166  RH  047%=      5-min Rain = 0
KLE1 191318Z 19005KT 29/17 A2989 RMK A01 T02890167  RH  048%=      5-min Rain = 0
KLE1 191319Z 19007KT 29/17 A2989 RMK A01 T02890167  RH  048%=      5-min Rain = 0
KLE1 191320Z 20007KT 29/17 A2989 RMK A01 T02900168  RH  048%=      5-min Rain = 0
KLE1 191321Z 19009KT 29/17 A2989 RMK A01 T02900168  RH  048%=      5-min Rain = 0
KLE1 191322Z 20008KT 29/17 A2989 RMK A01 T02910168  RH  047%=      5-min Rain = 0
KLE1 191323Z 20007KT 29/17 A2989 RMK A01 T02910168  RH  048%=      5-min Rain = 0
KLE1 191324Z 20009KT 29/17 A2989 RMK A01 T02910168  RH  047%=      5-min Rain = 0
KLE1 191325Z 19008KT 29/17 A2989 RMK A01 T02910168  RH  047%=      5-min Rain = 0
KLE1 191326Z 18007KT 29/17 A2989 RMK A01 T02920169  RH  047%=      5-min Rain = 0
KLE1 191327Z 18008KT 29/17 A2989 RMK A01 T02920168  RH  047%=      5-min Rain = 0
KLE1 191328Z 20008KT 29/17 A2989 RMK A01 T02920169  RH  047%=      5-min Rain = 0
KLE1 191329Z 21007KT 29/17 A2989 RMK A01 T02930170  RH  047%=      5-min Rain = 0
KLE1 191330Z 20007KT 29/17 A299 RMK A01 T02930169  RH  047%=      5-min Rain = 0
KLE1 191331Z 20006KT 29/17 A299 RMK A01 T02940169  RH  047%=      5-min Rain = 0
KLE1 191332Z 20006KT 30/17 A299 RMK A01 T02950171  RH  047%=      5-min Rain = 0
KLE1 191333Z 19010KT 30/17 A299 RMK A01 T02960171  RH  047%=      5-min Rain = 0
KLE1 191334Z 20010KT 30/17 A299 RMK A01 T02960170  RH  046%=      5-min Rain = 0
KLE1 191335Z 19010KT 30/17 A299 RMK A01 T02960170  RH  047%=      5-min Rain = 0
KLE1 191336Z 21009KT 30/17 A299 RMK A01 T02960171  RH  047%=      5-min Rain = 0
KLE1 191337Z 21009KT 30/17 A299 RMK A01 T02960170  RH  047%=      5-min Rain = 0
KLE1 191338Z 20011KT 30/17 A299 RMK A01 T02960171  RH  047%=      5-min Rain = 0
KLE1 191339Z 20010KT 30/17 A299 RMK A01 T02980170  RH  046%=      5-min Rain = 0
KLE1 191340Z 20010KT 30/17 A299 RMK A01 T02980170  RH  046%=      5-min Rain = 0
KLE1 191341Z 21011KT 30/17 A299 RMK A01 T02990170  RH  046%=      5-min Rain = 0
KLE1 191342Z 22011KT 30/17 A299 RMK A01 T02990169  RH  046%=      5-min Rain = 0
KLE1 191343Z 21010KT 30/17 A299 RMK A01 T02990171  RH  046%=      5-min Rain = 0
KLE1 191344Z 20011KT 30/17 A299 RMK A01 T03000172  RH  046%=      5-min Rain = 0
KLE1 191345Z 20010KT 30/17 A299 RMK A01 T03010172  RH  046%=      5-min Rain = 0
KLE1 191346Z 20009KT 30/17 A299 RMK A01 T03020173  RH  046%=      5-min Rain = 0
KLE1 191347Z 20010KT 30/17 A299 RMK A01 T03030172  RH  045%=      5-min Rain = 0
KLE1 191348Z 20012KT 30/17 A299 RMK A01 T03030171  RH  045%=      5-min Rain = 0
KLE1 191349Z 21010KT 30/17 A299 RMK A01 T03030171  RH  045%=      5-min Rain = 0
KLE1 191350Z 21008KT 30/17 A299 RMK A01 T03030172  RH  046%=      5-min Rain = 0
KLE1 191351Z 20009KT 30/17 A299 RMK A01 T03030172  RH  046%=      5-min Rain = 0
KLE1 191352Z 21009KT 30/17 A299 RMK A01 T03040172  RH  045%=      5-min Rain = 0
KLE1 191353Z 20011KT 30/17 A299 RMK A01 T03040172  RH  045%=      5-min Rain = 0
KLE1 191354Z 20011KT 31/17 A299 RMK A01 T03050171  RH  045%=      5-min Rain = 0
KLE1 191355Z 20010KT 30/17 A299 RMK A01 T03040172  RH  045%=      5-min Rain = 0
KLE1 191356Z 19009KT 31/17 A299 RMK A01 T03050173  RH  045%=      5-min Rain = 0
KLE1 191357Z 20011G17KT 31/17 A299 RMK A01 T03050173  RH  045%=      5-min Rain = 0
KLE1 191358Z 20011KT 31/17 A299 RMK A01 T03060172  RH  045%=      5-min Rain = 0
KLE1 191359Z 20011KT 31/17 A299 RMK A01 T03060173  RH  045%=      5-min Rain = 0
KLE1 191400Z 20010KT 31/17 A299 RMK A01 T03080173  RH  045%=      5-min Rain = 0
KLE1 191401Z 20012KT 31/17 A299 RMK A01 T03090172  RH  044%=      5-min Rain = 0
KLE1 191402Z 20012KT 31/17 A299 RMK A01 T03090172  RH  044%=      5-min Rain = 0
KLE1 191403Z 21011KT 31/17 A299 RMK A01 T03090173  RH  044%=      5-min Rain = 0
KLE1 191404Z 20010KT 31/17 A299 RMK A01 T03090173  RH  044%=      5-min Rain = 0
KLE1 191405Z 20011KT 31/17 A299 RMK A01 T03090172  RH  044%=      5-min Rain = 0
KLE1 191406Z 20011KT 31/17 A299 RMK A01 T03090174  RH  044%=      5-min Rain = 0
KLE1 191407Z 21010KT 31/17 A299 RMK A01 T03090173  RH  044%=      5-min Rain = 0
KLE1 191408Z 19011KT 31/17 A299 RMK A01 T03090174  RH  044%=      5-min Rain = 0
KLE1 191409Z 19013KT 31/17 A299 RMK A01 T03110173  RH  044%=      5-min Rain = 0
KLE1 191410Z 19015KT 31/17 A299 RMK A01 T03110173  RH  044%=      5-min Rain = 0
KLE1 191411Z 19015KT 31/17 A299 RMK A01 T03110172  RH  043%=      5-min Rain = 0
KLE1 191412Z 20013KT 31/17 A299 RMK A01 T03110172  RH  043%=      5-min Rain = 0
KLE1 191413Z 20012KT 31/17 A299 RMK A01 T03100173  RH  044%=      5-min Rain = 0
KLE1 191414Z 19013KT 31/17 A299 RMK A01 T03110174  RH  044%=      5-min Rain = 0
KLE1 191415Z 19013KT 31/17 A299 RMK A01 T03120174  RH  044%=      5-min Rain = 0
KLE1 191416Z 19013KT 31/17 A299 RMK A01 T03120174  RH  044%=      5-min Rain = 0
KLE1 191417Z 21012KT 31/17 A299 RMK A01 T03120173  RH  043%=      5-min Rain = 0
KLE1 191418Z 20012KT 31/17 A299 RMK A01 T03120174  RH  044%=      5-min Rain = 0
KLE1 191419Z 21011KT 31/17 A299 RMK A01 T03130173  RH  043%=      5-min Rain = 0
KLE1 191420Z 20010KT 31/17 A299 RMK A01 T03130174  RH  043%=      5-min Rain = 0
KLE1 191421Z 19012KT 31/18 A299 RMK A01 T03140176  RH  044%=      5-min Rain = 0
KLE1 191422Z 21011KT 32/17 A299 RMK A01 T03150174  RH  043%=      5-min Rain = 0
KLE1 191423Z 21009KT 32/17 A299 RMK A01 T03150174  RH  043%=      5-min Rain = 0
KLE1 191424Z 20011KT 32/18 A299 RMK A01 T03150175  RH  043%=      5-min Rain = 0
KLE1 191425Z 20010KT 32/17 A299 RMK A01 T03160174  RH  043%=      5-min Rain = 0
KLE1 191426Z 20013KT 32/18 A2989 RMK A01 T03160175  RH  043%=      5-min Rain = 0
KLE1 191427Z 20013KT 32/18 A2989 RMK A01 T03170175  RH  043%=      5-min Rain = 0
KLE1 191428Z 21014KT 32/17 A2989 RMK A01 T03170174  RH  042%=      5-min Rain = 0
KLE1 191429Z 21013KT 32/17 A2989 RMK A01 T03160174  RH  043%=      5-min Rain = 0
KLE1 191430Z 20013KT 32/18 A2989 RMK A01 T03160175  RH  043%=      5-min Rain = 0
KLE1 191431Z 20015KT 32/18 A2989 RMK A01 T03170175  RH  043%=      5-min Rain = 0
KLE1 191432Z 20015KT 32/17 A2989 RMK A01 T03170174  RH  042%=      5-min Rain = 0
KLE1 191433Z 19014KT 32/18 A2989 RMK A01 T03170175  RH  043%=      5-min Rain = 0
KLE1 191434Z 20013KT 32/18 A2989 RMK A01 T03170175  RH  043%=      5-min Rain = 0
KLE1 191435Z 21011KT 32/18 A2989 RMK A01 T03190177  RH  043%=      5-min Rain = 0
KLE1 191436Z 21010KT 32/18 A2989 RMK A01 T03210179  RH  043%=      5-min Rain = 0
KLE1 191437Z 21012KT 32/18 A2989 RMK A01 T03230176  RH  042%=      5-min Rain = 0
KLE1 191438Z 20013KT 32/18 A2989 RMK A01 T03220175  RH  042%=      5-min Rain = 0
KLE1 191439Z 21010KT 32/18 A2989 RMK A01 T03210176  RH  042%=      5-min Rain = 0
KLE1 191440Z 22010KT 32/18 A2989 RMK A01 T03210178  RH  042%=      5-min Rain = 0
KLE1 191441Z 21010KT 32/18 A2989 RMK A01 T03230176  RH  042%=      5-min Rain = 0
KLE1 191442Z 19010KT 32/18 A2989 RMK A01 T03230177  RH  042%=      5-min Rain = 0
KLE1 191443Z 20009KT 32/18 A2989 RMK A01 T03230176  RH  041%=      5-min Rain = 0
KLE1 191444Z 20010KT 32/18 A2989 RMK A01 T03220178  RH  042%=      5-min Rain = 0
KLE1 191445Z 20011KT 32/18 A2989 RMK A01 T03240177  RH  042%=      5-min Rain = 0
KLE1 191446Z 21010KT 32/18 A2989 RMK A01 T03240178  RH  042%=      5-min Rain = 0
KLE1 191447Z 21010KT 32/18 A2989 RMK A01 T03240178  RH  042%=      5-min Rain = 0
KLE1 191448Z 21009KT 33/18 A2989 RMK A01 T03250178  RH  042%=      5-min Rain = 0
KLE1 191449Z 20008KT 33/18 A2989 RMK A01 T03250177  RH  041%=      5-min Rain = 0
KLE1 191450Z 20010KT 32/18 A2989 RMK A01 T03240177  RH  042%=      5-min Rain = 0
KLE1 191451Z 20009KT 32/18 A2989 RMK A01 T03240177  RH  042%=      5-min Rain = 0
KLE1 191452Z 21009KT 33/18 A2989 RMK A01 T03260178  RH  042%=      5-min Rain = 0
KLE1 191453Z 20009KT 33/18 A2989 RMK A01 T03270177  RH  041%=      5-min Rain = 0
KLE1 191454Z 21009KT 33/18 A2989 RMK A01 T03280178  RH  041%=      5-min Rain = 0
KLE1 191455Z 20009KT 33/18 A2989 RMK A01 T03290177  RH  040%=      5-min Rain = 0
KLE1 191456Z 21008KT 33/18 A2989 RMK A01 T03290178  RH  041%=      5-min Rain = 0
KLE1 191457Z 20008KT 33/18 A2989 RMK A01 T03270176  RH  041%=      5-min Rain = 0
KLE1 191458Z 19009KT 33/18 A2989 RMK A01 T03260177  RH  041%=      5-min Rain = 0
KLE1 191459Z 19008KT 33/18 A2989 RMK A01 T03260177  RH  041%=      5-min Rain = 0
KLE1 191500Z 19008KT 33/18 A2989 RMK A01 T03280178  RH  041%=      5-min Rain = 0
KLE1 191501Z 19008KT 33/18 A2989 RMK A01 T03280177  RH  041%=      5-min Rain = 0
KLE1 191502Z 19008KT 33/18 A2989 RMK A01 T03270178  RH  041%=      5-min Rain = 0
KLE1 191503Z 18010KT 33/18 A2989 RMK A01 T03270178  RH  041%=      5-min Rain = 0
KLE1 191504Z 18010KT 33/18 A2989 RMK A01 T03280178  RH  041%=      5-min Rain = 0
KLE1 191505Z 19010KT 33/18 A2989 RMK A01 T03290179  RH  041%=      5-min Rain = 0
KLE1 191506Z 19008G13KT 33/18 A2989 RMK A01 T03280179  RH  041%=      5-min Rain = 0
KLE1 191507Z 19010KT 33/18 A2989 RMK A01 T03280178  RH  041%=      5-min Rain = 0
KLE1 191508Z 20008KT 33/18 A2989 RMK A01 T03290179  RH  041%=      5-min Rain = 0
KLE1 191509Z 20006KT 33/18 A2989 RMK A01 T03330179  RH  040%=      5-min Rain = 0
KLE1 191510Z 18006KT 33/18 A2989 RMK A01 T03330181  RH  040%=      5-min Rain = 0
KLE1 191511Z 18010KT 34/18 A2989 RMK A01 T03360181  RH  040%=      5-min Rain = 0
KLE1 191512Z 18010KT 34/18 A2989 RMK A01 T03360180  RH  040%=      5-min Rain = 0
KLE1 191513Z 17009KT 34/18 A2989 RMK A01 T03360180  RH  039%=      5-min Rain = 0
KLE1 191514Z 19007KT 34/18 A2989 RMK A01 T03360180  RH  040%=      5-min Rain = 0
KLE1 191515Z 19008KT 34/18 A2989 RMK A01 T03370180  RH  039%=      5-min Rain = 0
KLE1 191516Z 19006KT 34/18 A2989 RMK A01 T03350176  RH  039%=      5-min Rain = 0
KLE1 191517Z 18005KT 33/18 A2989 RMK A01 T03330179  RH  040%=      5-min Rain = 0
KLE1 191518Z 19009KT 34/18 A2989 RMK A01 T03350180  RH  040%=      5-min Rain = 0
KLE1 191519Z 20008KT 34/18 A2989 RMK A01 T03360178  RH  039%=      5-min Rain = 0
KLE1 191520Z 19008KT 34/18 A2989 RMK A01 T03360179  RH  039%=      5-min Rain = 0
KLE1 191521Z 18011KT 34/18 A2989 RMK A01 T03380180  RH  039%=      5-min Rain = 0
KLE1 191522Z 18010KT 34/18 A2989 RMK A01 T03380178  RH  039%=      5-min Rain = 0
KLE1 191523Z 18010KT 34/18 A2989 RMK A01 T03370180  RH  039%=      5-min Rain = 0
KLE1 191524Z 18009KT 34/18 A2989 RMK A01 T03380178  RH  039%=      5-min Rain = 0
KLE1 191525Z 19008KT 34/18 A2989 RMK A01 T03370179  RH  039%=      5-min Rain = 0
KLE1 191526Z 20010KT 34/18 A2989 RMK A01 T03390179  RH  039%=      5-min Rain = 0
KLE1 191527Z 20010KT 34/18 A2989 RMK A01 T03390179  RH  039%=      5-min Rain = 0
KLE1 191528Z 20009KT 34/18 A2989 RMK A01 T03390179  RH  039%=      5-min Rain = 0
KLE1 191529Z 21007KT 34/18 A2989 RMK A01 T03400179  RH  039%=      5-min Rain = 0
KLE1 191530Z 19007G12KT 34/18 A2988 RMK A01 T03400179  RH  038%=      5-min Rain = 0
KLE1 191531Z 19009KT 34/18 A2988 RMK A01 T03420182  RH  039%=      5-min Rain = 0
KLE1 191532Z 19010KT 35/18 A2988 RMK A01 T03450180  RH  038%=      5-min Rain = 0
KLE1 191533Z 18012KT 35/18 A2988 RMK A01 T03450180  RH  038%=      5-min Rain = 0
KLE1 191534Z 19010KT 35/18 A2988 RMK A01 T03450179  RH  037%=      5-min Rain = 0
KLE1 191535Z 20011KT 34/18 A2988 RMK A01 T03430180  RH  038%=      5-min Rain = 0
KLE1 191536Z 19010KT 35/18 A2988 RMK A01 T03450180  RH  038%=      5-min Rain = 0
KLE1 191537Z 18010KT 35/18 A2988 RMK A01 T03450179  RH  037%=      5-min Rain = 0
KLE1 191538Z 18009KT 34/18 A2988 RMK A01 T03430178  RH  038%=      5-min Rain = 0
KLE1 191539Z 18012KT 34/18 A2988 RMK A01 T03430180  RH  038%=      5-min Rain = 0
KLE1 191540Z 18011KT 34/18 A2988 RMK A01 T03440180  RH  038%=      5-min Rain = 0
KLE1 191541Z 18010KT 35/18 A2988 RMK A01 T03450179  RH  037%=      5-min Rain = 0
KLE1 191542Z 18011KT 35/18 A2988 RMK A01 T03460180  RH  038%=      5-min Rain = 0
KLE1 191543Z 18008KT 35/18 A2988 RMK A01 T03470180  RH  037%=      5-min Rain = 0
KLE1 191544Z 20008KT 35/18 A2988 RMK A01 T03480179  RH  037%=      5-min Rain = 0
KLE1 191545Z 18010KT 35/18 A2988 RMK A01 T03470180  RH  037%=      5-min Rain = 0
KLE1 191546Z 19012KT 35/18 A2988 RMK A01 T03470181  RH  037%=      5-min Rain = 0
KLE1 191547Z 20010KT 35/18 A2988 RMK A01 T03480180  RH  037%=      5-min Rain = 0
KLE1 191548Z 20010KT 35/18 A2988 RMK A01 T03470179  RH  037%=      5-min Rain = 0
KLE1 191549Z 18010G15KT 35/18 A2988 RMK A01 T03470182  RH  038%=      5-min Rain = 0
KLE1 191550Z 18010KT 35/18 A2988 RMK A01 T03510180  RH  037%=      5-min Rain = 0
KLE1 191551Z 18011KT 35/18 A2988 RMK A01 T03500180  RH  037%=      5-min Rain = 0
KLE1 191552Z 17011KT 35/18 A2988 RMK A01 T03490179  RH  037%=      5-min Rain = 0
KLE1 191553Z 18011KT 35/18 A2988 RMK A01 T03480178  RH  036%=      5-min Rain = 0
KLE1 191554Z 18012KT 35/18 A2988 RMK A01 T03470178  RH  037%=      5-min Rain = 0
KLE1 191555Z 19011KT 35/18 A2988 RMK A01 T03480179  RH  037%=      5-min Rain = 0
KLE1 191556Z 19011KT 35/18 A2988 RMK A01 T03500181  RH  037%=      5-min Rain = 0
KLE1 191557Z 19010KT 35/18 A2988 RMK A01 T03520180  RH  036%=      5-min Rain = 0
KLE1 191558Z 20010KT 35/18 A2988 RMK A01 T03540179  RH  036%=      5-min Rain = 0
KLE1 191559Z 19010KT 35/18 A2988 RMK A01 T03530181  RH  036%=      5-min Rain = 0
KLE1 191600Z 17013KT 35/18 A2988 RMK A01 T03530181  RH  036%=      5-min Rain = 0
KLE1 191601Z 18008KT 35/18 A2988 RMK A01 T03520180  RH  036%=      5-min Rain = 0
KLE1 191602Z 18010KT 35/18 A2988 RMK A01 T03510182  RH  037%=      5-min Rain = 0
KLE1 191603Z 18011KT 35/18 A2988 RMK A01 T03520182  RH  037%=      5-min Rain = 0
KLE1 191604Z 16009KT 35/18 A2988 RMK A01 T03530183  RH  037%=      5-min Rain = 0
KLE1 191605Z 17010KT 35/18 A2988 RMK A01 T03530181  RH  036%=      5-min Rain = 0
KLE1 191606Z 17010KT 35/18 A2988 RMK A01 T03530182  RH  036%=      5-min Rain = 0
KLE1 191607Z 21010KT 35/18 A2988 RMK A01 T03540184  RH  037%=      5-min Rain = 0
KLE1 191608Z 19012KT 36/19 A2988 RMK A01 T03580186  RH  036%=      5-min Rain = 0
KLE1 191609Z 19012KT 36/18 A2988 RMK A01 T03610182  RH  035%=      5-min Rain = 0
KLE1 191610Z 18010KT 36/18 A2988 RMK A01 T03570179  RH  035%=      5-min Rain = 0
KLE1 191611Z 16012KT 36/18 A2988 RMK A01 T03550181  RH  036%=      5-min Rain = 0
KLE1 191612Z 16011KT 36/18 A2987 RMK A01 T03560181  RH  036%=      5-min Rain = 0
KLE1 191613Z 17014KT 36/18 A2987 RMK A01 T03560181  RH  036%=      5-min Rain = 0
KLE1 191614Z 17013KT 36/18 A2987 RMK A01 T03560180  RH  035%=      5-min Rain = 0
KLE1 191615Z 17011KT 36/18 A2988 RMK A01 T03550180  RH  036%=      5-min Rain = 0
KLE1 191616Z 17009KT 36/18 A2988 RMK A01 T03550180  RH  036%=      5-min Rain = 0
KLE1 191617Z 18009KT 36/18 A2987 RMK A01 T03550181  RH  036%=      5-min Rain = 0
KLE1 191618Z 18012KT 36/18 A2988 RMK A01 T03570183  RH  036%=      5-min Rain = 0
KLE1 191619Z 18011KT 36/18 A2988 RMK A01 T03580181  RH  035%=      5-min Rain = 0
KLE1 191620Z 16013KT 36/18 A2988 RMK A01 T03570181  RH  035%=      5-min Rain = 0
KLE1 191621Z 17012KT 36/18 A2988 RMK A01 T03580182  RH  036%=      5-min Rain = 0
KLE1 191622Z 18011KT 36/18 A2988 RMK A01 T03590182  RH  035%=      5-min Rain = 0
KLE1 191623Z 18010KT 36/18 A2988 RMK A01 T03590183  RH  035%=      5-min Rain = 0
KLE1 191624Z 18013KT 36/18 A2988 RMK A01 T03610182  RH  035%=      5-min Rain = 0
KLE1 191625Z 18014KT 36/18 A2988 RMK A01 T03620181  RH  035%=      5-min Rain = 0
KLE1 191626Z 18013KT 36/18 A2988 RMK A01 T03600179  RH  035%=      5-min Rain = 0
KLE1 191627Z 18013KT 36/18 A2988 RMK A01 T03590180  RH  035%=      5-min Rain = 0
KLE1 191628Z 17012KT 36/18 A2987 RMK A01 T03580180  RH  035%=      5-min Rain = 0
KLE1 191629Z 18012G17KT 36/18 A2987 RMK A01 T03580179  RH  035%=      5-min Rain = 0
KLE1 191630Z 17012KT 36/18 A2987 RMK A01 T03590181  RH  035%=      5-min Rain = 0
KLE1 191631Z 17010KT 36/18 A2988 RMK A01 T03600180  RH  035%=      5-min Rain = 0
KLE1 191632Z 19009KT 36/18 A2988 RMK A01 T03590180  RH  035%=      5-min Rain = 0
KLE1 191633Z 18008KT 36/18 A2987 RMK A01 T03580179  RH  035%=      5-min Rain = 0
KLE1 191634Z 18012KT 36/18 A2987 RMK A01 T03580183  RH  036%=      5-min Rain = 0
KLE1 191635Z 17009KT 36/18 A2987 RMK A01 T03610182  RH  035%=      5-min Rain = 0
KLE1 191636Z 18009KT 36/18 A2987 RMK A01 T03620182  RH  035%=      5-min Rain = 0
KLE1 191637Z 20011KT 36/18 A2987 RMK A01 T03630182  RH  034%=      5-min Rain = 0
KLE1 191638Z 20010KT 36/18 A2987 RMK A01 T03630181  RH  034%=      5-min Rain = 0
KLE1 191639Z 19011KT 36/18 A2987 RMK A01 T03620181  RH  035%=      5-min Rain = 0
KLE1 191640Z 18010KT 36/18 A2987 RMK A01 T03640182  RH  034%=      5-min Rain = 0
KLE1 191641Z 18012KT 37/18 A2987 RMK A01 T03660181  RH  034%=      5-min Rain = 0
KLE1 191642Z 17009KT 36/18 A2987 RMK A01 T03640181  RH  034%=      5-min Rain = 0
KLE1 191643Z 18008KT 36/18 A2987 RMK A01 T03630180  RH  034%=      5-min Rain = 0
KLE1 191644Z 19007KT 36/18 A2987 RMK A01 T03610181  RH  035%=      5-min Rain = 0
KLE1 191645Z 18009KT 36/18 A2987 RMK A01 T03610182  RH  035%=      5-min Rain = 0
KLE1 191646Z 18012KT 36/18 A2987 RMK A01 T03630182  RH  035%=      5-min Rain = 0
KLE1 191647Z 18013KT 37/18 A2987 RMK A01 T03650179  RH  034%=      5-min Rain = 0
KLE1 191648Z 19009KT 36/18 A2987 RMK A01 T03640180  RH  034%=      5-min Rain = 0
KLE1 191649Z 18008KT 37/18 A2987 RMK A01 T03650180  RH  034%=      5-min Rain = 0
KLE1 191650Z 18009KT 37/18 A2987 RMK A01 T03650181  RH  034%=      5-min Rain = 0
KLE1 191651Z 19009KT 37/18 A2987 RMK A01 T03660182  RH  034%=      5-min Rain = 0
KLE1 191652Z 21010KT 37/18 A2987 RMK A01 T03660180  RH  034%=      5-min Rain = 0
KLE1 191653Z 21009KT 36/18 A2987 RMK A01 T03640182  RH  034%=      5-min Rain = 0
KLE1 191654Z 19009KT 37/18 A2987 RMK A01 T03660184  RH  034%=      5-min Rain = 0
KLE1 191655Z 19012KT 37/18 A2987 RMK A01 T03680182  RH  033%=      5-min Rain = 0
KLE1 191656Z 19011KT 37/18 A2987 RMK A01 T03690180  RH  033%=      5-min Rain = 0
KLE1 191657Z 19010KT 37/18 A2987 RMK A01 T03660180  RH  033%=      5-min Rain = 0
KLE1 191658Z 19008KT 37/18 A2987 RMK A01 T03650182  RH  034%=      5-min Rain = 0
KLE1 191659Z 16010KT 37/18 A2987 RMK A01 T03680183  RH  034%=      5-min Rain = 0
KLE1 191700Z 15010KT 37/18 A2987 RMK A01 T03710183  RH  033%=      5-min Rain = 0
KLE1 191701Z 15009KT 37/19 A2987 RMK A01 T03730187  RH  034%=      5-min Rain = 0
KLE1 191702Z 17008KT 38/18 A2987 RMK A01 T03750183  RH  033%=      5-min Rain = 0
KLE1 191703Z 19010KT 37/18 A2987 RMK A01 T03720182  RH  033%=      5-min Rain = 0
KLE1 191704Z 18012KT 37/18 A2987 RMK A01 T03700181  RH  033%=      5-min Rain = 0
KLE1 191705Z 18009KT 37/18 A2987 RMK A01 T03700181  RH  033%=      5-min Rain = 0
KLE1 191706Z 17013KT 37/18 A2987 RMK A01 T03700183  RH  034%=      5-min Rain = 0
KLE1 191707Z 15013KT 37/18 A2987 RMK A01 T03710184  RH  034%=      5-min Rain = 0
KLE1 191708Z 16013KT 37/18 A2987 RMK A01 T03720183  RH  033%=      5-min Rain = 0
KLE1 191709Z 16012KT 37/19 A2987 RMK A01 T03720186  RH  034%=      5-min Rain = 0
KLE1 191710Z 16012KT 38/19 A2987 RMK A01 T03760185  RH  033%=      5-min Rain = 0
KLE1 191711Z 17009KT 38/18 A2987 RMK A01 T03750183  RH  033%=      5-min Rain = 0
KLE1 191712Z 17009KT 37/18 A2987 RMK A01 T03720183  RH  033%=      5-min Rain = 0
KLE1 191713Z 16008KT 37/18 A2987 RMK A01 T03700182  RH  033%=      5-min Rain = 0
KLE1 191714Z 17010KT 37/18 A2987 RMK A01 T03690183  RH  034%=      5-min Rain = 0
KLE1 191715Z 17013KT 37/18 A2987 RMK A01 T03690180  RH  033%=      5-min Rain = 0
KLE1 191716Z 16013KT 37/18 A2987 RMK A01 T03700182  RH  033%=      5-min Rain = 0
KLE1 191717Z 18012KT 37/18 A2987 RMK A01 T03730183  RH  033%=      5-min Rain = 0
KLE1 191718Z 18010KT 38/18 A2987 RMK A01 T03750184  RH  033%=      5-min Rain = 0
KLE1 191719Z 16009KT 38/18 A2987 RMK A01 T03760183  RH  032%=      5-min Rain = 0
KLE1 191720Z 14012KT 37/18 A2986 RMK A01 T03740183  RH  033%=      5-min Rain = 0
KLE1 191721Z 17010KT 37/18 A2986 RMK A01 T03730183  RH  033%=      5-min Rain = 0
KLE1 191722Z 17014KT 38/19 A2986 RMK A01 T03760186  RH  033%=      5-min Rain = 0
KLE1 191723Z 19012KT 38/18 A2986 RMK A01 T03790184  RH  032%=      5-min Rain = 0
KLE1 191724Z 17012KT 38/19 A2986 RMK A01 T03810185  RH  032%=      5-min Rain = 0
KLE1 191725Z 15014KT 38/18 A2986 RMK A01 T03780181  RH  032%=      5-min Rain = 0
KLE1 191726Z 16014KT 38/18 A2986 RMK A01 T03760182  RH  032%=      5-min Rain = 0
KLE1 191727Z 17013KT 38/18 A2986 RMK A01 T03760182  RH  032%=      5-min Rain = 0
KLE1 191728Z 17014KT 38/18 A2986 RMK A01 T03760182  RH  032%=      5-min Rain = 0
KLE1 191729Z 19012KT 38/19 A2986 RMK A01 T03790185  RH  032%=      5-min Rain = 0
KLE1 191730Z 17012KT 38/18 A2986 RMK A01 T03810184  RH  032%=      5-min Rain = 0
KLE1 191731Z 16015KT 38/18 A2986 RMK A01 T03820181  RH  031%=      5-min Rain = 0
KLE1 191732Z 16014KT 38/18 A2986 RMK A01 T03790178  RH  031%=      5-min Rain = 0
KLE1 191733Z 16013KT 38/18 A2986 RMK A01 T03780179  RH  031%=      5-min Rain = 0
KLE1 191734Z 16011KT 38/18 A2986 RMK A01 T03780178  RH  031%=      5-min Rain = 0
KLE1 191735Z 15012KT 38/18 A2986 RMK A01 T03760179  RH  031%=      5-min Rain = 0
KLE1 191736Z 15012KT 38/18 A2986 RMK A01 T03760178  RH  031%=      5-min Rain = 0
KLE1 191737Z 16012KT 38/18 A2986 RMK A01 T03760179  RH  032%=      5-min Rain = 0
KLE1 191738Z 16015KT 38/18 A2986 RMK A01 T03770181  RH  032%=      5-min Rain = 0
KLE1 191739Z 16014KT 38/18 A2986 RMK A01 T03810184  RH  032%=      5-min Rain = 0
KLE1 191740Z 19013KT 38/18 A2986 RMK A01 T03820182  RH  031%=      5-min Rain = 0
KLE1 191741Z 18012KT 38/18 A2986 RMK A01 T03820183  RH  031%=      5-min Rain = 0
KLE1 191742Z 18009KT 38/18 A2986 RMK A01 T03810181  RH  031%=      5-min Rain = 0
KLE1 191743Z 17012G18KT 38/18 A2986 RMK A01 T03800184  RH  032%=      5-min Rain = 0
KLE1 191744Z 16014KT 38/18 A2986 RMK A01 T03810182  RH  031%=      5-min Rain = 0
KLE1 191745Z 17014KT 38/19 A2986 RMK A01 T03830185  RH  032%=      5-min Rain = 0
KLE1 191746Z 18015KT 39/18 A2986 RMK A01 T03850180  RH  030%=      5-min Rain = 0
KLE1 191747Z 20011KT 38/18 A2986 RMK A01 T03830180  RH  031%=      5-min Rain = 0
KLE1 191748Z 18009KT 38/18 A2986 RMK A01 T03830182  RH  031%=      5-min Rain = 0
KLE1 191749Z 15011KT 38/18 A2986 RMK A01 T03830183  RH  031%=      5-min Rain = 0
KLE1 191750Z 15009KT 38/18 A2986 RMK A01 T03830182  RH  031%=      5-min Rain = 0
KLE1 191751Z 15011KT 38/18 A2986 RMK A01 T03820182  RH  031%=      5-min Rain = 0
KLE1 191752Z 18014KT 38/18 A2986 RMK A01 T03820181  RH  031%=      5-min Rain = 0
KLE1 191753Z 18013KT 38/18 A2986 RMK A01 T03820179  RH  031%=      5-min Rain = 0
KLE1 191754Z 18013KT 38/18 A2986 RMK A01 T03820178  RH  030%=      5-min Rain = 0
KLE1 191755Z 18011KT 38/18 A2986 RMK A01 T03800179  RH  031%=      5-min Rain = 0
KLE1 191756Z 18011KT 38/18 A2986 RMK A01 T03800181  RH  031%=      5-min Rain = 0
KLE1 191757Z 18010KT 38/18 A2986 RMK A01 T03810180  RH  031%=      5-min Rain = 0
KLE1 191758Z 17009G14KT 38/18 A2986 RMK A01 T03820182  RH  031%=      5-min Rain = 0
KLE1 191759Z 17012KT 38/18 A2986 RMK A01 T03840180  RH  030%=      5-min Rain = 0
KLE1 191800Z 18010KT 38/18 A2986 RMK A01 T03840182  RH  031%=      5-min Rain = 0
KLE1 191801Z 16006KT 39/19 A2986 RMK A01 T03850186  RH  031%=      5-min Rain = 0
KLE1 191802Z 17014KT 39/19 A2986 RMK A01 T03890186  RH  031%=      5-min Rain = 0
KLE1 191803Z 17014KT 39/18 A2985 RMK A01 T03910184  RH  030%=      5-min Rain = 0
KLE1 191804Z 16012KT 39/18 A2985 RMK A01 T03880180  RH  030%=      5-min Rain = 0
KLE1 191805Z 14014G19KT 39/18 A2985 RMK A01 T03870182  RH  030%=      5-min Rain = 0
KLE1 191806Z 15012KT 39/18 A2985 RMK A01 T03850181  RH  030%=      5-min Rain = 0
KLE1 191807Z 18011G16KT 39/18 A2986 RMK A01 T03860182  RH  031%=      5-min Rain = 0
KLE1 191808Z 17010KT 39/18 A2985 RMK A01 T03870182  RH  030%=      5-min Rain = 0
KLE1 191809Z 16014KT 39/18 A2985 RMK A01 T03890183  RH  030%=      5-min Rain = 0
KLE1 191810Z 15015KT 39/18 A2985 RMK A01 T03880181  RH  030%=      5-min Rain = 0
KLE1 191811Z 15015KT 39/18 A2985 RMK A01 T03880182  RH  030%=      5-min Rain = 0
KLE1 191812Z 15013KT 39/18 A2985 RMK A01 T03880182  RH  030%=      5-min Rain = 0
KLE1 191813Z 14012KT 39/18 A2985 RMK A01 T03870183  RH  031%=      5-min Rain = 0
KLE1 191814Z 14009KT 39/18 A2985 RMK A01 T03870183  RH  031%=      5-min Rain = 0
KLE1 191815Z 17015KT 39/18 A2985 RMK A01 T03890183  RH  030%=      5-min Rain = 0
KLE1 191816Z 17016KT 39/18 A2985 RMK A01 T03910180  RH  029%=      5-min Rain = 0
KLE1 191817Z 17014KT 39/18 A2985 RMK A01 T03900176  RH  029%=      5-min Rain = 0
KLE1 191818Z 17014KT 39/18 A2985 RMK A01 T03880177  RH  029%=      5-min Rain = 0
KLE1 191819Z 16013KT 39/18 A2985 RMK A01 T03890178  RH  029%=      5-min Rain = 0
KLE1 191820Z 19013G18KT 39/18 A2985 RMK A01 T03880181  RH  030%=      5-min Rain = 0
KLE1 191821Z 18015KT 39/18 A2985 RMK A01 T03920180  RH  029%=      5-min Rain = 0
KLE1 191822Z 18015KT 39/18 A2985 RMK A01 T03880177  RH  029%=      5-min Rain = 0
KLE1 191823Z 19012KT 39/18 A2985 RMK A01 T03850178  RH  030%=      5-min Rain = 0
KLE1 191824Z 20010KT 39/18 A2985 RMK A01 T03850181  RH  030%=      5-min Rain = 0
KLE1 191825Z 18016KT 39/18 A2985 RMK A01 T03880183  RH  030%=      5-min Rain = 0
KLE1 191826Z 18012KT 39/18 A2985 RMK A01 T03890182  RH  030%=      5-min Rain = 0
KLE1 191827Z 17012KT 39/18 A2985 RMK A01 T03890183  RH  030%=      5-min Rain = 0
KLE1 191828Z 18009KT 39/18 A2985 RMK A01 T03890182  RH  030%=      5-min Rain = 0
KLE1 191829Z 16008KT 39/18 A2985 RMK A01 T03880183  RH  030%=      5-min Rain = 0
KLE1 191830Z 18009G14KT 39/18 A2985 RMK A01 T03880183  RH  030%=      5-min Rain = 0
KLE1 191831Z 19012KT 39/18 A2985 RMK A01 T03900182  RH  030%=      5-min Rain = 0
KLE1 191832Z 17014KT 39/19 A2985 RMK A01 T03930185  RH  030%=      5-min Rain = 0
KLE1 191833Z 17015KT 40/18 A2985 RMK A01 T03950184  RH  030%=      5-min Rain = 0
KLE1 191834Z 19011KT 39/18 A2985 RMK A01 T03940183  RH  029%=      5-min Rain = 0
KLE1 191835Z 19009KT 40/18 A2985 RMK A01 T03960181  RH  029%=      5-min Rain = 0
KLE1 191836Z 19010KT 40/18 A2985 RMK A01 T03970180  RH  028%=      5-min Rain = 0
KLE1 191837Z 18008KT 40/18 A2985 RMK A01 T03960178  RH  028%=      5-min Rain = 0
KLE1 191838Z 18010KT 39/18 A2985 RMK A01 T03940182  RH  029%=      5-min Rain = 0
KLE1 191839Z 19012KT 40/18 A2985 RMK A01 T03960182  RH  029%=      5-min Rain = 0
KLE1 191840Z 18011KT 40/18 A2985 RMK A01 T03960181  RH  029%=      5-min Rain = 0
KLE1 191841Z 18010KT 39/18 A2985 RMK A01 T03940181  RH  029%=      5-min Rain = 0
KLE1 191842Z 20013G19KT 40/19 A2985 RMK A01 T03960187  RH  030%=      5-min Rain = 0
KLE1 191843Z 20015KT 40/18 A2985 RMK A01 T03990183  RH  029%=      5-min Rain = 0
KLE1 191844Z 19015KT 40/18 A2985 RMK A01 T03980183  RH  029%=      5-min Rain = 0
KLE1 191845Z 20012KT 39/18 A2985 RMK A01 T03940180  RH  029%=      5-min Rain = 0
KLE1 191846Z 22011G17KT 40/18 A2985 RMK A01 T03950181  RH  029%=      5-min Rain = 0
KLE1 191847Z 21013G18KT 40/18 A2985 RMK A01 T03960181  RH  029%=      5-min Rain = 0
KLE1 191848Z 20011KT 40/18 A2985 RMK A01 T03950180  RH  029%=      5-min Rain = 0
KLE1 191849Z 18014KT 40/18 A2985 RMK A01 T03950179  RH  028%=      5-min Rain = 0
KLE1 191850Z 18014KT 40/18 A2985 RMK A01 T03980177  RH  028%=      5-min Rain = 0
KLE1 191851Z 19012KT 40/18 A2985 RMK A01 T03990176  RH  027%=      5-min Rain = 0
KLE1 191852Z 19010KT 40/18 A2985 RMK A01 T03980177  RH  028%=      5-min Rain = 0
KLE1 191853Z 19013KT 40/18 A2985 RMK A01 T03970180  RH  028%=      5-min Rain = 0
KLE1 191854Z 18011KT 40/18 A2985 RMK A01 T03980180  RH  028%=      5-min Rain = 0
KLE1 191855Z 18012KT 40/18 A2985 RMK A01 T03950179  RH  028%=      5-min Rain = 0
KLE1 191856Z 19010KT 39/18 A2985 RMK A01 T03940179  RH  029%=      5-min Rain = 0
KLE1 191857Z 19009KT 39/18 A2984 RMK A01 T03940182  RH  029%=      5-min Rain = 0
KLE1 191858Z 18010KT 40/18 A2984 RMK A01 T03980181  RH  028%=      5-min Rain = 0
KLE1 191859Z 17013KT 40/18 A2984 RMK A01 T04010182  RH  028%=      5-min Rain = 0
KLE1 191900Z 17013KT 40/18 A2984 RMK A01 T04000180  RH  028%=      5-min Rain = 0
KLE1 191901Z 16013KT 40/18 A2984 RMK A01 T03970180  RH  028%=      5-min Rain = 0
KLE1 191902Z 17014KT 40/18 A2984 RMK A01 T03960178  RH  028%=      5-min Rain = 0
KLE1 191903Z 16012G17KT 40/18 A2984 RMK A01 T03950178  RH  028%=      5-min Rain = 0
KLE1 191904Z 17012G17KT 39/18 A2984 RMK A01 T03940181  RH  029%=      5-min Rain = 0
KLE1 191905Z 18013KT 40/18 A2984 RMK A01 T03980182  RH  029%=      5-min Rain = 0
KLE1 191906Z 16014G19KT 40/18 A2984 RMK A01 T04010180  RH  028%=      5-min Rain = 0
KLE1 191907Z 16013KT 40/18 A2984 RMK A01 T04020180  RH  028%=      5-min Rain = 0
KLE1 191908Z 16009KT 40/18 A2984 RMK A01 T04000176  RH  027%=      5-min Rain = 0
KLE1 191909Z 15010KT 40/18 A2984 RMK A01 T03970177  RH  028%=      5-min Rain = 0
KLE1 191910Z 15012KT 40/18 A2984 RMK A01 T03960180  RH  029%=      5-min Rain = 0
KLE1 191911Z 17011G16KT 40/18 A2984 RMK A01 T03960181  RH  029%=      5-min Rain = 0
KLE1 191912Z 17015G20KT 40/18 A2984 RMK A01 T03960182  RH  029%=      5-min Rain = 0
KLE1 191913Z 17017KT 40/18 A2984 RMK A01 T03960180  RH  028%=      5-min Rain = 0
KLE1 191914Z 18014KT 40/18 A2984 RMK A01 T03980176  RH  028%=      5-min Rain = 0
KLE1 191915Z 16011KT 40/18 A2984 RMK A01 T03970176  RH  028%=      5-min Rain = 0
KLE1 191916Z 16013KT 40/18 A2984 RMK A01 T03970175  RH  028%=      5-min Rain = 0
KLE1 191917Z 16012KT 40/18 A2984 RMK A01 T03950176  RH  028%=      5-min Rain = 0
KLE1 191918Z 15011KT 39/18 A2984 RMK A01 T03930177  RH  028%=      5-min Rain = 0
KLE1 191919Z 16012KT 39/18 A2984 RMK A01 T03940184  RH  030%=      5-min Rain = 0
KLE1 191920Z 16011KT 40/19 A2984 RMK A01 T03970185  RH  029%=      5-min Rain = 0
KLE1 191921Z 15015KT 40/19 A2984 RMK A01 T03980186  RH  029%=      5-min Rain = 0
KLE1 191922Z 15016KT 40/19 A2984 RMK A01 T03980185  RH  029%=      5-min Rain = 0
KLE1 191923Z 15016KT 40/19 A2984 RMK A01 T03970186  RH  029%=      5-min Rain = 0
KLE1 191924Z 17015KT 40/18 A2984 RMK A01 T03980184  RH  029%=      5-min Rain = 0
KLE1 191925Z 17015KT 40/18 A2984 RMK A01 T03990184  RH  029%=      5-min Rain = 0
KLE1 191926Z 16015G20KT 40/19 A2984 RMK A01 T04010187  RH  029%=      5-min Rain = 0
KLE1 191927Z 17015G23KT 40/19 A2984 RMK A01 T04040187  RH  029%=      5-min Rain = 0
KLE1 191928Z 17019KT 40/19 A2984 RMK A01 T04040185  RH  028%=      5-min Rain = 0
KLE1 191929Z 16019KT 40/19 A2984 RMK A01 T04040186  RH  028%=      5-min Rain = 0
KLE1 191930Z 16017G22KT 40/18 A2984 RMK A01 T04020183  RH  028%=      5-min Rain = 0
KLE1 191931Z 16013KT 40/18 A2984 RMK A01 T03980184  RH  029%=      5-min Rain = 0
KLE1 191932Z 15014KT 40/18 A2984 RMK A01 T03980184  RH  029%=      5-min Rain = 0
KLE1 191933Z 16017KT 40/19 A2983 RMK A01 T03990185  RH  029%=      5-min Rain = 0
KLE1 191934Z 18011KT 40/19 A2984 RMK A01 T04030185  RH  028%=      5-min Rain = 0
KLE1 191935Z 14014KT 40/19 A2984 RMK A01 T04040185  RH  028%=      5-min Rain = 0
KLE1 191936Z 16015G20KT 40/18 A2983 RMK A01 T04030184  RH  028%=      5-min Rain = 0
KLE1 191937Z 15016KT 40/19 A2984 RMK A01 T04020185  RH  029%=      5-min Rain = 0
KLE1 191938Z 15017KT 40/18 A2984 RMK A01 T04020182  RH  028%=      5-min Rain = 0
KLE1 191939Z 14014KT 40/18 A2984 RMK A01 T03970182  RH  029%=      5-min Rain = 0
KLE1 191940Z 14011KT 40/19 A2983 RMK A01 T03960185  RH  029%=      5-min Rain = 0
KLE1 191941Z 15014G19KT 40/19 A2983 RMK A01 T04010187  RH  029%=      5-min Rain = 0
KLE1 191942Z 16013KT 40/18 A2983 RMK A01 T04020184  RH  028%=      5-min Rain = 0
KLE1 191943Z 16013KT 40/18 A2983 RMK A01 T04010184  RH  029%=      5-min Rain = 0
KLE1 191944Z 16015G20KT 41/19 A2983 RMK A01 T04050187  RH  028%=      5-min Rain = 0
KLE1 191945Z 16015KT 41/18 A2983 RMK A01 T04060181  RH  027%=      5-min Rain = 0
KLE1 191946Z 16015G20KT 40/19 A2983 RMK A01 T04030185  RH  028%=      5-min Rain = 0
KLE1 191947Z 17016KT 40/18 A2983 RMK A01 T04040183  RH  028%=      5-min Rain = 0
KLE1 191948Z 15015KT 41/19 A2983 RMK A01 T04050186  RH  028%=      5-min Rain = 0
KLE1 191949Z 14014KT 40/19 A2983 RMK A01 T04040186  RH  028%=      5-min Rain = 0
KLE1 191950Z 15013KT 40/19 A2983 RMK A01 T04040188  RH  029%=      5-min Rain = 0
KLE1 191951Z 16012G17KT 41/19 A2983 RMK A01 T04070190  RH  029%=      5-min Rain = 0
KLE1 191952Z 16017KT 41/19 A2983 RMK A01 T04090188  RH  028%=      5-min Rain = 0
KLE1 191953Z 16011KT 41/18 A2983 RMK A01 T04060183  RH  028%=      5-min Rain = 0
KLE1 191954Z 14013KT 40/19 A2983 RMK A01 T04020185  RH  028%=      5-min Rain = 0
KLE1 191955Z 17015KT 40/18 A2983 RMK A01 T04010184  RH  029%=      5-min Rain = 0
KLE1 191956Z 18015KT 40/18 A2983 RMK A01 T04030181  RH  028%=      5-min Rain = 0
KLE1 191957Z 17013G18KT 40/18 A2983 RMK A01 T04030181  RH  028%=      5-min Rain = 0
KLE1 191958Z 17012KT 40/18 A2983 RMK A01 T04030180  RH  028%=      5-min Rain = 0
KLE1 191959Z 19013KT 40/18 A2983 RMK A01 T04020182  RH  028%=      5-min Rain = 0
KLE1 192000Z 17013KT 40/18 A2983 RMK A01 T04030181  RH  028%=      5-min Rain = 0
KLE1 192001Z 18018KT 40/18 A2983 RMK A01 T04030181  RH  028%=      5-min Rain = 0
KLE1 192002Z 18014KT 41/18 A2983 RMK A01 T04050180  RH  027%=      5-min Rain = 0
KLE1 192003Z 17011KT 41/18 A2983 RMK A01 T04050179  RH  027%=      5-min Rain = 0
KLE1 192004Z 17013KT 40/18 A2983 RMK A01 T04040180  RH  027%=      5-min Rain = 0
KLE1 192005Z 14016G21KT 40/18 A2983 RMK A01 T04040181  RH  028%=      5-min Rain = 0
KLE1 192006Z 15018KT 41/18 A2983 RMK A01 T04050180  RH  027%=      5-min Rain = 0
KLE1 192007Z 14013KT 40/18 A2983 RMK A01 T04040179  RH  027%=      5-min Rain = 0
KLE1 192008Z 14013KT 40/18 A2983 RMK A01 T04010183  RH  028%=      5-min Rain = 0
KLE1 192009Z 14013KT 41/18 A2983 RMK A01 T04050184  RH  028%=      5-min Rain = 0
KLE1 192010Z 15012KT 40/18 A2983 RMK A01 T04030181  RH  028%=      5-min Rain = 0
KLE1 192011Z 17018KT 40/18 A2983 RMK A01 T04010183  RH  028%=      5-min Rain = 0
KLE1 192012Z 18019G24KT 40/18 A2983 RMK A01 T04040182  RH  028%=      5-min Rain = 0
KLE1 192013Z 17017KT 41/18 A2983 RMK A01 T04050179  RH  027%=      5-min Rain = 0
KLE1 192014Z 18011KT 40/18 A2983 RMK A01 T04020180  RH  028%=      5-min Rain = 0
KLE1 192015Z 17013KT 40/18 A2983 RMK A01 T04010180  RH  028%=      5-min Rain = 0
KLE1 192016Z 15016KT 40/18 A2983 RMK A01 T04010181  RH  028%=      5-min Rain = 0
KLE1 192017Z 15015KT 40/18 A2983 RMK A01 T04010181  RH  028%=      5-min Rain = 0
KLE1 192018Z 15013KT 40/18 A2983 RMK A01 T04020183  RH  028%=      5-min Rain = 0
KLE1 192019Z 16016G21KT 41/18 A2983 RMK A01 T04050183  RH  028%=      5-min Rain = 0
KLE1 192020Z 16018KT 41/18 A2982 RMK A01 T04060181  RH  027%=      5-min Rain = 0
KLE1 192021Z 17019KT 40/18 A2982 RMK A01 T04040180  RH  027%=      5-min Rain = 0
KLE1 192022Z 16016G21KT 40/18 A2982 RMK A01 T04030181  RH  028%=      5-min Rain = 0
KLE1 192023Z 18018KT 41/18 A2983 RMK A01 T04050180  RH  027%=      5-min Rain = 0
KLE1 192024Z 20013KT 40/18 A2982 RMK A01 T04040179  RH  027%=      5-min Rain = 0
KLE1 192025Z 17012G17KT 40/18 A2982 RMK A01 T04020179  RH  028%=      5-min Rain = 0
KLE1 192026Z 15015KT 40/18 A2982 RMK A01 T04020183  RH  028%=      5-min Rain = 0
KLE1 192027Z 15016KT 40/18 A2982 RMK A01 T04040183  RH  028%=      5-min Rain = 0
KLE1 192028Z 16015KT 40/18 A2982 RMK A01 T04030182  RH  028%=      5-min Rain = 0
KLE1 192029Z 15013KT 40/18 A2982 RMK A01 T04020183  RH  028%=      5-min Rain = 0
KLE1 192030Z 16014KT 40/18 A2982 RMK A01 T04020183  RH  028%=      5-min Rain = 0
KLE1 192031Z 18015G22KT 40/18 A2982 RMK A01 T04030182  RH  028%=      5-min Rain = 0
KLE1 192032Z 17013G19KT 41/18 A2982 RMK A01 T04050179  RH  027%=      5-min Rain = 0
KLE1 192033Z 18012G18KT 41/18 A2982 RMK A01 T04060180  RH  027%=      5-min Rain = 0
KLE1 192034Z 16018KT 41/18 A2982 RMK A01 T04060180  RH  027%=      5-min Rain = 0
KLE1 192035Z 15019KT 41/18 A2982 RMK A01 T04050180  RH  027%=      5-min Rain = 0
KLE1 192036Z 15014KT 40/18 A2982 RMK A01 T04040181  RH  027%=      5-min Rain = 0
KLE1 192037Z 16013KT 40/18 A2982 RMK A01 T04040183  RH  028%=      5-min Rain = 0
KLE1 192038Z 14013KT 41/18 A2982 RMK A01 T04070182  RH  027%=      5-min Rain = 0
KLE1 192039Z 15015KT 41/18 A2982 RMK A01 T04060180  RH  027%=      5-min Rain = 0
KLE1 192040Z 14016KT 40/18 A2982 RMK A01 T04040182  RH  028%=      5-min Rain = 0
KLE1 192041Z 15015KT 41/18 A2981 RMK A01 T04050184  RH  028%=      5-min Rain = 0
KLE1 192042Z 14016G22KT 41/19 A2981 RMK A01 T04080187  RH  028%=      5-min Rain = 0
KLE1 192043Z 13017KT 41/18 A2981 RMK A01 T04110180  RH  026%=      5-min Rain = 0
KLE1 192044Z 13017KT 41/18 A2981 RMK A01 T04100183  RH  027%=      5-min Rain = 0
KLE1 192045Z 14017KT 41/18 A2981 RMK A01 T04060180  RH  027%=      5-min Rain = 0
KLE1 192046Z 14013KT 40/18 A2981 RMK A01 T04010179  RH  028%=      5-min Rain = 0
KLE1 192047Z 15013KT 40/18 A2981 RMK A01 T04010183  RH  028%=      5-min Rain = 0
KLE1 192048Z 15015KT 41/19 A2982 RMK A01 T04060187  RH  028%=      5-min Rain = 0
KLE1 192049Z 15015KT 41/18 A2982 RMK A01 T04060182  RH  027%=      5-min Rain = 0
KLE1 192050Z 17016KT 41/18 A2982 RMK A01 T04050184  RH  028%=      5-min Rain = 0
KLE1 192051Z 18018KT 41/18 A2982 RMK A01 T04070178  RH  027%=      5-min Rain = 0
KLE1 192052Z 18018KT 41/18 A2982 RMK A01 T04080175  RH  026%=      5-min Rain = 0
KLE1 192053Z 19014KT 41/18 A2982 RMK A01 T04060175  RH  026%=      5-min Rain = 0
KLE1 192054Z 18012KT 41/18 A2982 RMK A01 T04050178  RH  027%=      5-min Rain = 0
KLE1 192055Z 18013KT 41/18 A2981 RMK A01 T04060179  RH  027%=      5-min Rain = 0
KLE1 192056Z 18011KT 41/18 A2981 RMK A01 T04070182  RH  027%=      5-min Rain = 0
KLE1 192057Z 15010KT 41/18 A2981 RMK A01 T04100183  RH  027%=      5-min Rain = 0
KLE1 192058Z 16010G15KT 41/18 A2981 RMK A01 T04080181  RH  027%=      5-min Rain = 0
KLE1 192059Z 18018KT 41/18 A2981 RMK A01 T04070179  RH  027%=      5-min Rain = 0
KLE1 192100Z 17022KT 41/18 A2981 RMK A01 T04060176  RH  026%=      5-min Rain = 0
KLE1 192101Z 16024KT 41/18 A2981 RMK A01 T04060175  RH  026%=      5-min Rain = 0
KLE1 192102Z 16017G22KT 41/18 A2981 RMK A01 T04070176  RH  026%=      5-min Rain = 0
KLE1 192103Z 17018KT 41/17 A2981 RMK A01 T04060171  RH  026%=      5-min Rain = 0
KLE1 192104Z 16012G17KT 40/17 A2981 RMK A01 T04000168  RH  026%=      5-min Rain = 0
KLE1 192105Z 16018G24KT 40/17 A2981 RMK A01 T03950172  RH  027%=      5-min Rain = 0
KLE1 192106Z 16009KT 40/17 A2981 RMK A01 T03950173  RH  028%=      5-min Rain = 0
KLE1 192107Z 17013KT 40/18 A2981 RMK A01 T03980176  RH  028%=      5-min Rain = 0
KLE1 192108Z 16016KT 40/18 A2981 RMK A01 T04040179  RH  027%=      5-min Rain = 0
KLE1 192109Z 15019G25KT 41/18 A2981 RMK A01 T04080177  RH  026%=      5-min Rain = 0
KLE1 192110Z 15019KT 41/18 A2981 RMK A01 T04090175  RH  026%=      5-min Rain = 0
KLE1 192111Z 16018KT 41/18 A2981 RMK A01 T04090175  RH  026%=      5-min Rain = 0
KLE1 192112Z 16014G20KT 41/18 A2981 RMK A01 T04070175  RH  026%=      5-min Rain = 0
KLE1 192113Z 16014G19KT 41/18 A2981 RMK A01 T04060177  RH  027%=      5-min Rain = 0
KLE1 192114Z 15017KT 41/18 A2981 RMK A01 T04070178  RH  027%=      5-min Rain = 0
KLE1 192115Z 14015KT 41/18 A298 RMK A01 T04070177  RH  026%=      5-min Rain = 0
KLE1 192116Z 13012KT 41/18 A298 RMK A01 T04050177  RH  027%=      5-min Rain = 0
KLE1 192117Z 13017KT 41/18 A298 RMK A01 T04050179  RH  027%=      5-min Rain = 0
KLE1 192118Z 14017KT 41/18 A298 RMK A01 T04070180  RH  027%=      5-min Rain = 0
KLE1 192119Z 15022KT 41/18 A298 RMK A01 T04080181  RH  027%=      5-min Rain = 0
KLE1 192120Z 15021KT 41/18 A298 RMK A01 T04070177  RH  026%=      5-min Rain = 0
KLE1 192121Z 14017KT 40/18 A298 RMK A01 T04040177  RH  027%=      5-min Rain = 0
KLE1 192122Z 13019KT 40/18 A298 RMK A01 T04020179  RH  027%=      5-min Rain = 0
KLE1 192123Z 16017KT 40/18 A298 RMK A01 T04040179  RH  027%=      5-min Rain = 0
KLE1 192124Z 15012KT 41/18 A298 RMK A01 T04050180  RH  027%=      5-min Rain = 0
KLE1 192125Z 14014G19KT 41/18 A298 RMK A01 T04070183  RH  027%=      5-min Rain = 0
KLE1 192126Z 15020KT 41/18 A298 RMK A01 T04090181  RH  027%=      5-min Rain = 0
KLE1 192127Z 16019KT 41/18 A298 RMK A01 T04100176  RH  026%=      5-min Rain = 0
KLE1 192128Z 17014KT 41/17 A298 RMK A01 T04080174  RH  026%=      5-min Rain = 0
KLE1 192129Z 15021KT 41/18 A298 RMK A01 T04050177  RH  027%=      5-min Rain = 0
KLE1 192130Z 15018KT 41/18 A298 RMK A01 T04060177  RH  027%=      5-min Rain = 0
KLE1 192131Z 15020KT 40/18 A298 RMK A01 T04040176  RH  027%=      5-min Rain = 0
KLE1 192132Z 14020KT 40/18 A298 RMK A01 T04000175  RH  027%=      5-min Rain = 0
KLE1 192133Z 14024KT 40/18 A298 RMK A01 T04000176  RH  027%=      5-min Rain = 0
KLE1 192134Z 15019KT 40/18 A298 RMK A01 T04020177  RH  027%=      5-min Rain = 0
KLE1 192135Z 16018KT 40/18 A298 RMK A01 T04020177  RH  027%=      5-min Rain = 0
KLE1 192136Z 15016KT 40/18 A298 RMK A01 T04030178  RH  027%=      5-min Rain = 0
KLE1 192137Z 14018KT 40/18 A298 RMK A01 T04040178  RH  027%=      5-min Rain = 0
KLE1 192138Z 14020KT 40/18 A298 RMK A01 T04040178  RH  027%=      5-min Rain = 0
KLE1 192139Z 15022KT 41/18 A2979 RMK A01 T04060179  RH  027%=      5-min Rain = 0
KLE1 192140Z 17020KT 41/18 A298 RMK A01 T04080178  RH  026%=      5-min Rain = 0
KLE1 192141Z 18020G25KT 41/18 A298 RMK A01 T04080175  RH  026%=      5-min Rain = 0
KLE1 192142Z 16015KT 41/18 A298 RMK A01 T04060175  RH  026%=      5-min Rain = 0
KLE1 192143Z 17012KT 41/17 A298 RMK A01 T04050174  RH  026%=      5-min Rain = 0
KLE1 192144Z 17014G23KT 41/18 A298 RMK A01 T04050176  RH  027%=      5-min Rain = 0
KLE1 192145Z 15022KT 41/18 A298 RMK A01 T04070175  RH  026%=      5-min Rain = 0
KLE1 192146Z 16018G23KT 41/17 A298 RMK A01 T04070174  RH  026%=      5-min Rain = 0
KLE1 192147Z 18016G22KT 41/17 A298 RMK A01 T04060173  RH  026%=      5-min Rain = 0
KLE1 192148Z 18016KT 40/17 A298 RMK A01 T04040172  RH  026%=      5-min Rain = 0
KLE1 192149Z 18011KT 41/17 A298 RMK A01 T04050172  RH  026%=      5-min Rain = 0
KLE1 192150Z 17014KT 41/17 A298 RMK A01 T04060174  RH  026%=      5-min Rain = 0
KLE1 192151Z 16016KT 41/18 A298 RMK A01 T04080175  RH  026%=      5-min Rain = 0
KLE1 192152Z 14016KT 41/17 A298 RMK A01 T04090174  RH  026%=      5-min Rain = 0
KLE1 192153Z 16017KT 41/17 A298 RMK A01 T04090173  RH  025%=      5-min Rain = 0
KLE1 192154Z 15017KT 41/17 A298 RMK A01 T04090171  RH  025%=      5-min Rain = 0
KLE1 192155Z 14017KT 41/17 A298 RMK A01 T04080173  RH  026%=      5-min Rain = 0
KLE1 192156Z 16016KT 41/17 A298 RMK A01 T04070174  RH  026%=      5-min Rain = 0
KLE1 192157Z 16015KT 41/18 A2979 RMK A01 T04060175  RH  026%=      5-min Rain = 0
KLE1 192158Z 17016KT 41/17 A2979 RMK A01 T04070174  RH  026%=      5-min Rain = 0
KLE1 192159Z 16014KT 41/17 A2979 RMK A01 T04050174  RH  026%=      5-min Rain = 0
KLE1 192200Z 16015KT 41/17 A2979 RMK A01 T04050174  RH  026%=      5-min Rain = 0
KLE1 192201Z 14014KT 40/18 A2979 RMK A01 T04040175  RH  026%=      5-min Rain = 0
KLE1 192202Z 16015G22KT 41/18 A2979 RMK A01 T04070177  RH  026%=      5-min Rain = 0
KLE1 192203Z 18013G19KT 41/18 A2979 RMK A01 T04120179  RH  026%=      5-min Rain = 0
KLE1 192204Z 19018KT 41/18 A2979 RMK A01 T04130175  RH  025%=      5-min Rain = 0
KLE1 192205Z 18017KT 41/17 A2979 RMK A01 T04090172  RH  025%=      5-min Rain = 0
KLE1 192206Z 18018G23KT 41/17 A2979 RMK A01 T04060173  RH  026%=      5-min Rain = 0
KLE1 192207Z 18020KT 41/17 A2979 RMK A01 T04070171  RH  025%=      5-min Rain = 0
KLE1 192208Z 19019KT 41/17 A2979 RMK A01 T04080170  RH  025%=      5-min Rain = 0
KLE1 192209Z 19017KT 41/17 A2979 RMK A01 T04080170  RH  025%=      5-min Rain = 0
KLE1 192210Z 19015KT 41/17 A2979 RMK A01 T04080169  RH  025%=      5-min Rain = 0
KLE1 192211Z 17014KT 41/17 A2979 RMK A01 T04080167  RH  025%=      5-min Rain = 0
KLE1 192212Z 16012KT 41/17 A2979 RMK A01 T04070168  RH  025%=      5-min Rain = 0
KLE1 192213Z 16010G15KT 41/17 A2979 RMK A01 T04070168  RH  025%=      5-min Rain = 0
KLE1 192214Z 16012KT 41/17 A2979 RMK A01 T04070170  RH  025%=      5-min Rain = 0
KLE1 192215Z 18018G23KT 41/17 A2979 RMK A01 T04070171  RH  025%=      5-min Rain = 0
KLE1 192216Z 17018KT 41/17 A2979 RMK A01 T04080172  RH  025%=      5-min Rain = 0
KLE1 192217Z 17017KT 41/17 A2979 RMK A01 T04080171  RH  025%=      5-min Rain = 0
KLE1 192218Z 18016KT 41/17 A2979 RMK A01 T04070170  RH  025%=      5-min Rain = 0
KLE1 192219Z 18017KT 41/17 A2979 RMK A01 T04070173  RH  026%=      5-min Rain = 0
KLE1 192220Z 18016KT 41/17 A2979 RMK A01 T04080171  RH  025%=      5-min Rain = 0
KLE1 192221Z 18014KT 41/17 A2979 RMK A01 T04070170  RH  025%=      5-min Rain = 0
KLE1 192222Z 18016KT 41/17 A2979 RMK A01 T04070172  RH  026%=      5-min Rain = 0
KLE1 192223Z 17016KT 41/17 A2979 RMK A01 T04080171  RH  025%=      5-min Rain = 0
KLE1 192224Z 17012KT 41/17 A2979 RMK A01 T04070170  RH  025%=      5-min Rain = 0
KLE1 192225Z 18012KT 41/17 A2979 RMK A01 T04060171  RH  026%=      5-min Rain = 0
KLE1 192226Z 16013KT 41/17 A2979 RMK A01 T04070173  RH  026%=      5-min Rain = 0
KLE1 192227Z 17017KT 41/17 A2979 RMK A01 T04090172  RH  025%=      5-min Rain = 0
KLE1 192228Z 17016KT 41/17 A2979 RMK A01 T04080170  RH  025%=      5-min Rain = 0
KLE1 192229Z 16015G20KT 41/17 A2979 RMK A01 T04070173  RH  026%=      5-min Rain = 0
KLE1 192230Z 15018KT 41/17 A2979 RMK A01 T04090172  RH  025%=      5-min Rain = 0
KLE1 192231Z 15018KT 41/17 A2979 RMK A01 T04080171  RH  025%=      5-min Rain = 0
KLE1 192232Z 15017KT 41/17 A2979 RMK A01 T04060170  RH  025%=      5-min Rain = 0
KLE1 192233Z 16017KT 41/17 A2979 RMK A01 T04050171  RH  026%=      5-min Rain = 0
KLE1 192234Z 15022KT 41/17 A2979 RMK A01 T04060170  RH  025%=      5-min Rain = 0
KLE1 192235Z 16018KT 41/17 A2979 RMK A01 T04060168  RH  025%=      5-min Rain = 0
KLE1 192236Z 15016KT 40/17 A2979 RMK A01 T04040168  RH  025%=      5-min Rain = 0
KLE1 192237Z 16014KT 40/17 A2979 RMK A01 T04020167  RH  025%=      5-min Rain = 0
KLE1 192238Z 15015KT 40/17 A2979 RMK A01 T03990167  RH  026%=      5-min Rain = 0
KLE1 192239Z 15022KT 40/17 A2978 RMK A01 T03980168  RH  026%=      5-min Rain = 0
KLE1 192240Z 16017KT 40/17 A2979 RMK A01 T04020169  RH  026%=      5-min Rain = 0
KLE1 192241Z 16019KT 40/17 A2979 RMK A01 T04040167  RH  025%=      5-min Rain = 0
KLE1 192242Z 16015KT 40/17 A2979 RMK A01 T04040167  RH  025%=      5-min Rain = 0
KLE1 192243Z 16014KT 40/17 A2979 RMK A01 T04030167  RH  025%=      5-min Rain = 0
KLE1 192244Z 16016KT 40/17 A2979 RMK A01 T04040167  RH  025%=      5-min Rain = 0
KLE1 192245Z 16017KT 40/17 A2979 RMK A01 T04030170  RH  026%=      5-min Rain = 0
KLE1 192246Z 15015KT 40/17 A2979 RMK A01 T04030170  RH  026%=      5-min Rain = 0
KLE1 192247Z 15015KT 40/17 A2979 RMK A01 T04020169  RH  026%=      5-min Rain = 0
KLE1 192248Z 17015KT 40/17 A2979 RMK A01 T04030172  RH  026%=      5-min Rain = 0
KLE1 192249Z 16016KT 41/17 A2979 RMK A01 T04060170  RH  025%=      5-min Rain = 0
KLE1 192250Z 17011G17KT 41/17 A2979 RMK A01 T04050169  RH  025%=      5-min Rain = 0
KLE1 192251Z 17015KT 40/17 A2978 RMK A01 T04040170  RH  026%=      5-min Rain = 0
KLE1 192252Z 16015KT 41/17 A2978 RMK A01 T04050169  RH  025%=      5-min Rain = 0
KLE1 192253Z 16016G21KT 41/17 A2978 RMK A01 T04060170  RH  025%=      5-min Rain = 0
KLE1 192254Z 17022KT 41/17 A2978 RMK A01 T04050168  RH  025%=      5-min Rain = 0
KLE1 192255Z 17019KT 40/17 A2978 RMK A01 T04020165  RH  025%=      5-min Rain = 0
KLE1 192256Z 16021KT 40/17 A2978 RMK A01 T04010165  RH  025%=      5-min Rain = 0
KLE1 192257Z 16018KT 40/17 A2978 RMK A01 T04000165  RH  025%=      5-min Rain = 0
KLE1 192258Z 16017KT 40/17 A2978 RMK A01 T03980165  RH  026%=      5-min Rain = 0
KLE1 192259Z 17017KT 40/16 A2978 RMK A01 T03950163  RH  026%=      5-min Rain = 0
KLE1 192300Z 16015KT 39/16 A2978 RMK A01 T03930163  RH  026%=      5-min Rain = 0
KLE1 192301Z 16014KT 39/16 A2978 RMK A01 T03940164  RH  026%=      5-min Rain = 0
KLE1 192302Z 17015KT 40/17 A2978 RMK A01 T03980165  RH  026%=      5-min Rain = 0
KLE1 192303Z 16016G21KT 40/17 A2978 RMK A01 T04020168  RH  026%=      5-min Rain = 0
KLE1 192304Z 16018KT 40/17 A2978 RMK A01 T04040168  RH  025%=      5-min Rain = 0
KLE1 192305Z 16015KT 40/17 A2978 RMK A01 T04030166  RH  025%=      5-min Rain = 0
KLE1 192306Z 16015KT 40/17 A2978 RMK A01 T03990166  RH  026%=      5-min Rain = 0
KLE1 192307Z 15014G20KT 40/17 A2978 RMK A01 T03990168  RH  026%=      5-min Rain = 0
KLE1 192308Z 15016KT 40/17 A2978 RMK A01 T04020168  RH  026%=      5-min Rain = 0
KLE1 192309Z 15015KT 40/17 A2978 RMK A01 T04020168  RH  026%=      5-min Rain = 0
KLE1 192310Z 16020KT 40/17 A2978 RMK A01 T04020168  RH  026%=      5-min Rain = 0
KLE1 192311Z 15017KT 40/17 A2978 RMK A01 T04010166  RH  025%=      5-min Rain = 0
KLE1 192312Z 16016KT 40/17 A2978 RMK A01 T04000166  RH  026%=      5-min Rain = 0
KLE1 192313Z 16016G21KT 40/17 A2978 RMK A01 T04010169  RH  026%=      5-min Rain = 0
KLE1 192314Z 17019KT 40/17 A2978 RMK A01 T04030167  RH  025%=      5-min Rain = 0
KLE1 192315Z 16018KT 40/17 A2978 RMK A01 T04020167  RH  025%=      5-min Rain = 0
KLE1 192316Z 16020KT 40/17 A2978 RMK A01 T04010167  RH  026%=      5-min Rain = 0
KLE1 192317Z 17018KT 40/17 A2978 RMK A01 T04010166  RH  025%=      5-min Rain = 0
KLE1 192318Z 17015KT 40/17 A2978 RMK A01 T04000166  RH  026%=      5-min Rain = 0
KLE1 192319Z 15014KT 40/17 A2977 RMK A01 T04010167  RH  026%=      5-min Rain = 0
KLE1 192320Z 17016G21KT 40/17 A2977 RMK A01 T04020166  RH  025%=      5-min Rain = 0
KLE1 192321Z 17019KT 40/17 A2977 RMK A01 T04020167  RH  025%=      5-min Rain = 0
KLE1 192322Z 17019KT 40/17 A2977 RMK A01 T04030165  RH  025%=      5-min Rain = 0
KLE1 192323Z 17019KT 40/16 A2977 RMK A01 T04030164  RH  025%=      5-min Rain = 0
KLE1 192324Z 18017KT 40/16 A2977 RMK A01 T04010163  RH  025%=      5-min Rain = 0
KLE1 192325Z 18018KT 40/16 A2977 RMK A01 T04010164  RH  025%=      5-min Rain = 0
KLE1 192326Z 17017KT 40/16 A2977 RMK A01 T04000164  RH  025%=      5-min Rain = 0
KLE1 192327Z 17015KT 40/16 A2977 RMK A01 T04010163  RH  025%=      5-min Rain = 0
KLE1 192328Z 16016KT 40/16 A2977 RMK A01 T04000163  RH  025%=      5-min Rain = 0
KLE1 192329Z 15020KT 40/16 A2977 RMK A01 T04000164  RH  025%=      5-min Rain = 0
KLE1 192330Z 16020KT 40/16 A2977 RMK A01 T04000163  RH  025%=      5-min Rain = 0
KLE1 192331Z 17018KT 40/16 A2977 RMK A01 T04000163  RH  025%=      5-min Rain = 0
KLE1 192332Z 17018KT 40/16 A2977 RMK A01 T04010163  RH  025%=      5-min Rain = 0
KLE1 192333Z 16018KT 40/16 A2977 RMK A01 T04010162  RH  025%=      5-min Rain = 0
KLE1 192334Z 16018KT 40/16 A2977 RMK A01 T04000162  RH  025%=      5-min Rain = 0
KLE1 192335Z 17017KT 40/16 A2977 RMK A01 T04000162  RH  025%=      5-min Rain = 0
KLE1 192336Z 17015KT 40/16 A2977 RMK A01 T04000163  RH  025%=      5-min Rain = 0
KLE1 192337Z 17017G23KT 40/16 A2977 RMK A01 T03990164  RH  025%=      5-min Rain = 0
KLE1 192338Z 17021G27KT 40/16 A2977 RMK A01 T03980162  RH  025%=      5-min Rain = 0
KLE1 192339Z 16021KT 40/16 A2977 RMK A01 T03970162  RH  025%=      5-min Rain = 0
KLE1 192340Z 17018KT 39/16 A2977 RMK A01 T03940160  RH  025%=      5-min Rain = 0
KLE1 192341Z 16015KT 39/16 A2977 RMK A01 T03920161  RH  026%=      5-min Rain = 0
KLE1 192342Z 16018KT 39/16 A2977 RMK A01 T03920161  RH  026%=      5-min Rain = 0
KLE1 192343Z 16016KT 39/16 A2977 RMK A01 T03940160  RH  025%=      5-min Rain = 0
KLE1 192344Z 16013KT 40/16 A2977 RMK A01 T03960162  RH  025%=      5-min Rain = 0
KLE1 192345Z 15016KT 40/16 A2977 RMK A01 T03980164  RH  026%=      5-min Rain = 0
KLE1 192346Z 16018KT 40/16 A2977 RMK A01 T03990163  RH  025%=      5-min Rain = 0
KLE1 192347Z 17017KT 40/16 A2977 RMK A01 T03990164  RH  025%=      5-min Rain = 0
KLE1 192348Z 16020KT 40/16 A2977 RMK A01 T03990164  RH  025%=      5-min Rain = 0
KLE1 192349Z 16017G22KT 40/16 A2977 RMK A01 T03980163  RH  025%=      5-min Rain = 0
KLE1 192350Z 16017KT 40/17 A2978 RMK A01 T03970165  RH  026%=      5-min Rain = 0
KLE1 192351Z 16019KT 40/17 A2977 RMK A01 T03960165  RH  026%=      5-min Rain = 0
KLE1 192352Z 15015KT 40/17 A2977 RMK A01 T03960166  RH  026%=      5-min Rain = 0
KLE1 192353Z 15015KT 40/17 A2977 RMK A01 T03960167  RH  026%=      5-min Rain = 0
KLE1 192354Z 16018KT 40/17 A2977 RMK A01 T03950166  RH  026%=      5-min Rain = 0
KLE1 192355Z 16016KT 40/17 A2977 RMK A01 T03950168  RH  026%=      5-min Rain = 0
KLE1 192356Z 16016G21KT 40/17 A2978 RMK A01 T03960168  RH  026%=      5-min Rain = 0
KLE1 192357Z 16019KT 40/16 A2977 RMK A01 T03970164  RH  026%=      5-min Rain = 0
KLE1 192358Z 16018KT 40/16 A2978 RMK A01 T03960163  RH  026%=      5-min Rain = 0
KLE1 192359Z 16018G23KT 40/16 A2978 RMK A01 T03950163  RH  026%=      5-min Rain = 0
KLE1 200000Z 16017G22KT 40/16 A2978 RMK A01 T03950163  RH  026%=      5-min Rain = 0
KLE1 200001Z 17012KT 40/16 A2978 RMK A01 T03950164  RH  026%=      5-min Rain = 0
KLE1 200002Z 17016KT 40/16 A2978 RMK A01 T03960164  RH  026%=      5-min Rain = 0
KLE1 200003Z 16019KT 40/16 A2978 RMK A01 T03960162  RH  025%=      5-min Rain = 0
KLE1 200004Z 16021KT 40/16 A2978 RMK A01 T03950161  RH  025%=      5-min Rain = 0
KLE1 200005Z 16019KT 39/16 A2978 RMK A01 T03940163  RH  026%=      5-min Rain = 0
KLE1 200006Z 16019KT 39/16 A2978 RMK A01 T03940162  RH  026%=      5-min Rain = 0
KLE1 200007Z 17020KT 39/16 A2978 RMK A01 T03940163  RH  026%=      5-min Rain = 0
KLE1 200008Z 17019KT 39/16 A2978 RMK A01 T03930162  RH  026%=      5-min Rain = 0
KLE1 200009Z 17019KT 39/16 A2978 RMK A01 T03930162  RH  026%=      5-min Rain = 0
KLE1 200010Z 16018KT 39/16 A2978 RMK A01 T03920162  RH  026%=      5-min Rain = 0
KLE1 200011Z 16017KT 39/16 A2978 RMK A01 T03920164  RH  026%=      5-min Rain = 0
KLE1 200012Z 17019KT 39/17 A2978 RMK A01 T03920165  RH  027%=      5-min Rain = 0
KLE1 200013Z 17020KT 39/17 A2978 RMK A01 T03910165  RH  027%=      5-min Rain = 0
KLE1 200014Z 16018KT 39/17 A2978 RMK A01 T03910166  RH  027%=      5-min Rain = 0
KLE1 200015Z 17018KT 39/17 A2978 RMK A01 T03910166  RH  027%=      5-min Rain = 0
KLE1 200016Z 17018KT 39/17 A2978 RMK A01 T03910165  RH  027%=      5-min Rain = 0
KLE1 200017Z 18018KT 39/16 A2978 RMK A01 T03910163  RH  026%=      5-min Rain = 0
KLE1 200018Z 17016KT 39/16 A2978 RMK A01 T03910162  RH  026%=      5-min Rain = 0
KLE1 200019Z 17014KT 39/16 A2978 RMK A01 T03910164  RH  027%=      5-min Rain = 0
KLE1 200020Z 16016KT 39/17 A2978 RMK A01 T03900165  RH  027%=      5-min Rain = 0
KLE1 200021Z 16014KT 39/17 A2978 RMK A01 T03900166  RH  027%=      5-min Rain = 0
KLE1 200022Z 17016KT 39/17 A2978 RMK A01 T03900165  RH  027%=      5-min Rain = 0
KLE1 200023Z 17015KT 39/16 A2978 RMK A01 T03900164  RH  027%=      5-min Rain = 0
KLE1 200024Z 17016KT 39/17 A2978 RMK A01 T03900165  RH  027%=      5-min Rain = 0
KLE1 200025Z 17016KT 39/17 A2978 RMK A01 T03900166  RH  027%=      5-min Rain = 0
KLE1 200026Z 17018G23KT 39/17 A2978 RMK A01 T03900166  RH  027%=      5-min Rain = 0
KLE1 200027Z 17019KT 39/16 A2978 RMK A01 T03900164  RH  027%=      5-min Rain = 0
KLE1 200028Z 16019KT 39/16 A2978 RMK A01 T03900163  RH  027%=      5-min Rain = 0
KLE1 200029Z 16018KT 39/16 A2978 RMK A01 T03890163  RH  027%=      5-min Rain = 0
KLE1 200030Z 16018G23KT 39/16 A2978 RMK A01 T03880164  RH  027%=      5-min Rain = 0
KLE1 200031Z 16019KT 39/16 A2978 RMK A01 T03880164  RH  027%=      5-min Rain = 0
KLE1 200032Z 15018KT 39/16 A2978 RMK A01 T03870164  RH  027%=      5-min Rain = 0
KLE1 200033Z 16017KT 39/16 A2978 RMK A01 T03870164  RH  027%=      5-min Rain = 0
KLE1 200034Z 16017KT 39/17 A2978 RMK A01 T03870165  RH  027%=      5-min Rain = 0
KLE1 200035Z 16014KT 39/17 A2978 RMK A01 T03870165  RH  027%=      5-min Rain = 0
KLE1 200036Z 15016KT 39/17 A2978 RMK A01 T03860165  RH  027%=      5-min Rain = 0
KLE1 200037Z 15015KT 38/17 A2978 RMK A01 T03840165  RH  028%=      5-min Rain = 0
KLE1 200038Z 16014KT 38/17 A2978 RMK A01 T03830165  RH  028%=      5-min Rain = 0
KLE1 200039Z 17018KT 38/16 A2978 RMK A01 T03840164  RH  028%=      5-min Rain = 0
KLE1 200040Z 17017KT 39/16 A2978 RMK A01 T03850162  RH  027%=      5-min Rain = 0
KLE1 200041Z 17015KT 39/16 A2978 RMK A01 T03850163  RH  027%=      5-min Rain = 0
KLE1 200042Z 17015G20KT 39/16 A2978 RMK A01 T03850164  RH  027%=      5-min Rain = 0
KLE1 200043Z 17014KT 39/17 A2978 RMK A01 T03850165  RH  027%=      5-min Rain = 0
KLE1 200044Z 17014G20KT 38/17 A2979 RMK A01 T03840165  RH  028%=      5-min Rain = 0
KLE1 200045Z 17018KT 38/16 A2978 RMK A01 T03830164  RH  028%=      5-min Rain = 0
KLE1 200046Z 17015KT 38/16 A2979 RMK A01 T03830164  RH  028%=      5-min Rain = 0
KLE1 200047Z 16016KT 38/17 A2979 RMK A01 T03830165  RH  028%=      5-min Rain = 0
KLE1 200048Z 16018G23KT 38/17 A2979 RMK A01 T03830166  RH  028%=      5-min Rain = 0
KLE1 200049Z 15015KT 38/17 A2979 RMK A01 T03830167  RH  028%=      5-min Rain = 0
KLE1 200050Z 14019KT 38/17 A2979 RMK A01 T03820168  RH  028%=      5-min Rain = 0
KLE1 200051Z 15017KT 38/17 A2979 RMK A01 T03810167  RH  028%=      5-min Rain = 0
KLE1 200052Z 15017KT 38/17 A2979 RMK A01 T03810167  RH  029%=      5-min Rain = 0
KLE1 200053Z 16018KT 38/17 A2979 RMK A01 T03800166  RH  028%=      5-min Rain = 0
KLE1 200054Z 16015KT 38/17 A2979 RMK A01 T03800166  RH  028%=      5-min Rain = 0
KLE1 200055Z 17016KT 38/17 A2979 RMK A01 T03800165  RH  028%=      5-min Rain = 0
KLE1 200056Z 16013KT 38/17 A2979 RMK A01 T03800165  RH  028%=      5-min Rain = 0
KLE1 200057Z 16014KT 38/17 A2979 RMK A01 T03800166  RH  028%=      5-min Rain = 0
KLE1 200058Z 16016KT 38/17 A2979 RMK A01 T03800166  RH  028%=      5-min Rain = 0
KLE1 200059Z 17017KT 38/17 A2979 RMK A01 T03800166  RH  028%=      5-min Rain = 0
KLE1 200100Z 16014G20KT 38/16 A2979 RMK A01 T03800164  RH  028%=      5-min Rain = 0
KLE1 200101Z 16014KT 38/17 A2979 RMK A01 T03800166  RH  029%=      5-min Rain = 0
KLE1 200102Z 15017KT 38/17 A2979 RMK A01 T03790166  RH  029%=      5-min Rain = 0
KLE1 200103Z 16017KT 38/17 A2979 RMK A01 T03780165  RH  029%=      5-min Rain = 0
KLE1 200104Z 16016KT 38/17 A2979 RMK A01 T03780166  RH  029%=      5-min Rain = 0
KLE1 200105Z 16018G23KT 38/17 A2979 RMK A01 T03780166  RH  029%=      5-min Rain = 0
KLE1 200106Z 16018G23KT 38/17 A2979 RMK A01 T03770165  RH  029%=      5-min Rain = 0
KLE1 200107Z 15015KT 38/17 A2979 RMK A01 T03770166  RH  029%=      5-min Rain = 0
KLE1 200108Z 16017KT 38/17 A2979 RMK A01 T03760166  RH  029%=      5-min Rain = 0
KLE1 200109Z 16018KT 38/17 A2979 RMK A01 T03760165  RH  029%=      5-min Rain = 0
KLE1 200110Z 15018KT 38/17 A2979 RMK A01 T03750165  RH  029%=      5-min Rain = 0
KLE1 200111Z 16019KT 37/17 A2979 RMK A01 T03740165  RH  029%=      5-min Rain = 0
KLE1 200112Z 15014KT 37/17 A2979 RMK A01 T03740165  RH  029%=      5-min Rain = 0
KLE1 200113Z 15017KT 37/17 A2979 RMK A01 T03740165  RH  029%=      5-min Rain = 0
KLE1 200114Z 15019KT 37/17 A2979 RMK A01 T03730165  RH  029%=      5-min Rain = 0
KLE1 200115Z 15016KT 37/16 A2979 RMK A01 T03720164  RH  029%=      5-min Rain = 0
KLE1 200116Z 15016KT 37/17 A2979 RMK A01 T03720165  RH  029%=      5-min Rain = 0
KLE1 200117Z 15015KT 37/17 A2979 RMK A01 T03720165  RH  030%=      5-min Rain = 0
KLE1 200118Z 15016KT 37/17 A2979 RMK A01 T03710165  RH  030%=      5-min Rain = 0
KLE1 200119Z 15016KT 37/17 A2979 RMK A01 T03700165  RH  030%=      5-min Rain = 0
KLE1 200120Z 15016KT 37/17 A2979 RMK A01 T03700165  RH  030%=      5-min Rain = 0
KLE1 200121Z 15015KT 37/17 A2979 RMK A01 T03690165  RH  030%=      5-min Rain = 0
KLE1 200122Z 15015KT 37/17 A2979 RMK A01 T03690165  RH  030%=      5-min Rain = 0
KLE1 200123Z 15017KT 37/17 A2979 RMK A01 T03680165  RH  030%=      5-min Rain = 0
KLE1 200124Z 15016KT 37/16 A2979 RMK A01 T03680164  RH  030%=      5-min Rain = 0
KLE1 200125Z 15019KT 37/16 A2979 RMK A01 T03680164  RH  030%=      5-min Rain = 0
KLE1 200126Z 15016KT 37/16 A2979 RMK A01 T03680164  RH  030%=      5-min Rain = 0
KLE1 200127Z 15015KT 37/17 A2979 RMK A01 T03680165  RH  030%=      5-min Rain = 0
KLE1 200128Z 15016KT 37/16 A2979 RMK A01 T03670164  RH  030%=      5-min Rain = 0
KLE1 200129Z 15017KT 37/17 A298 RMK A01 T03670165  RH  030%=      5-min Rain = 0
KLE1 200130Z 15016KT 37/16 A298 RMK A01 T03670164  RH  030%=      5-min Rain = 0
KLE1 200131Z 15015KT 37/16 A298 RMK A01 T03670164  RH  030%=      5-min Rain = 0
KLE1 200132Z 15014G19KT 37/16 A298 RMK A01 T03660164  RH  030%=      5-min Rain = 0
KLE1 200133Z 15016KT 37/16 A298 RMK A01 T03650164  RH  030%=      5-min Rain = 0
KLE1 200134Z 15014KT 37/16 A298 RMK A01 T03650164  RH  030%=      5-min Rain = 0
KLE1 200135Z 15016KT 37/16 A298 RMK A01 T03650164  RH  031%=      5-min Rain = 0
KLE1 200136Z 15016KT 36/16 A298 RMK A01 T03640164  RH  031%=      5-min Rain = 0
KLE1 200137Z 15014KT 36/16 A298 RMK A01 T03640164  RH  031%=      5-min Rain = 0
KLE1 200138Z 15015KT 36/16 A298 RMK A01 T03640164  RH  031%=      5-min Rain = 0
KLE1 200139Z 15012KT 36/16 A298 RMK A01 T03630164  RH  031%=      5-min Rain = 0
KLE1 200140Z 15013KT 36/16 A298 RMK A01 T03620164  RH  031%=      5-min Rain = 0
KLE1 200141Z 15018KT 36/16 A298 RMK A01 T03620164  RH  031%=      5-min Rain = 0
KLE1 200142Z 15015KT 36/16 A298 RMK A01 T03630164  RH  031%=      5-min Rain = 0
KLE1 200143Z 16013KT 36/16 A298 RMK A01 T03630164  RH  031%=      5-min Rain = 0
KLE1 200144Z 15015KT 36/16 A298 RMK A01 T03620164  RH  031%=      5-min Rain = 0
KLE1 200145Z 15015KT 36/16 A298 RMK A01 T03620164  RH  031%=      5-min Rain = 0
KLE1 200146Z 16014KT 36/16 A298 RMK A01 T03610163  RH  031%=      5-min Rain = 0
KLE1 200147Z 15016KT 36/16 A298 RMK A01 T03610163  RH  031%=      5-min Rain = 0
KLE1 200148Z 15014KT 36/16 A298 RMK A01 T03610163  RH  031%=      5-min Rain = 0
KLE1 200149Z 15016KT 36/16 A298 RMK A01 T03610164  RH  031%=      5-min Rain = 0
KLE1 200150Z 15016KT 36/16 A298 RMK A01 T03610163  RH  031%=      5-min Rain = 0
KLE1 200151Z 15014KT 36/16 A298 RMK A01 T03610163  RH  031%=      5-min Rain = 0
KLE1 200152Z 16015KT 36/16 A298 RMK A01 T03600163  RH  031%=      5-min Rain = 0
KLE1 200153Z 16013KT 36/16 A298 RMK A01 T03600163  RH  031%=      5-min Rain = 0
KLE1 200154Z 15013KT 36/16 A298 RMK A01 T03590163  RH  031%=      5-min Rain = 0
KLE1 200155Z 15016KT 36/16 A298 RMK A01 T03580163  RH  031%=      5-min Rain = 0
KLE1 200156Z 15014KT 36/16 A298 RMK A01 T03590162  RH  031%=      5-min Rain = 0
KLE1 200157Z 15014KT 36/16 A298 RMK A01 T03590162  RH  031%=      5-min Rain = 0
KLE1 200158Z 15015KT 36/16 A298 RMK A01 T03590162  RH  031%=      5-min Rain = 0
KLE1 200159Z 15015KT 36/16 A298 RMK A01 T03590162  RH  031%=      5-min Rain = 0
KLE1 200200Z 15014KT 36/16 A298 RMK A01 T03580162  RH  031%=      5-min Rain = 0
KLE1 200201Z 15016KT 36/16 A298 RMK A01 T03580162  RH  031%=      5-min Rain = 0
KLE1 200202Z 15015KT 36/16 A298 RMK A01 T03580162  RH  031%=      5-min Rain = 0
KLE1 200203Z 16017KT 36/16 A298 RMK A01 T03580162  RH  031%=      5-min Rain = 0
KLE1 200204Z 16015KT 36/16 A298 RMK A01 T03580163  RH  031%=      5-min Rain = 0
KLE1 200205Z 16016KT 36/16 A298 RMK A01 T03590163  RH  031%=      5-min Rain = 0
KLE1 200206Z 16016KT 36/16 A298 RMK A01 T03590163  RH  031%=      5-min Rain = 0
KLE1 200207Z 16015KT 36/16 A298 RMK A01 T03580163  RH  031%=      5-min Rain = 0
KLE1 200208Z 15014KT 36/16 A298 RMK A01 T03580163  RH  032%=      5-min Rain = 0
KLE1 200209Z 16013KT 36/16 A2981 RMK A01 T03570163  RH  032%=      5-min Rain = 0
KLE1 200210Z 15011KT 36/16 A2981 RMK A01 T03560163  RH  032%=      5-min Rain = 0
KLE1 200211Z 15013KT 35/16 A2981 RMK A01 T03540163  RH  032%=      5-min Rain = 0
KLE1 200212Z 15012KT 35/16 A2981 RMK A01 T03540163  RH  032%=      5-min Rain = 0
KLE1 200213Z 15012KT 35/16 A2981 RMK A01 T03530164  RH  032%=      5-min Rain = 0
KLE1 200214Z 15012KT 35/16 A2981 RMK A01 T03530163  RH  033%=      5-min Rain = 0
KLE1 200215Z 15012KT 35/16 A2981 RMK A01 T03520164  RH  033%=      5-min Rain = 0
KLE1 200216Z 15014KT 35/17 A2981 RMK A01 T03520165  RH  033%=      5-min Rain = 0
KLE1 200217Z 15013KT 35/17 A2981 RMK A01 T03520166  RH  033%=      5-min Rain = 0
KLE1 200218Z 15014KT 35/17 A2981 RMK A01 T03510166  RH  033%=      5-min Rain = 0
KLE1 200219Z 15014KT 35/17 A2981 RMK A01 T03510167  RH  034%=      5-min Rain = 0
KLE1 200220Z 14015KT 35/17 A2981 RMK A01 T03520168  RH  034%=      5-min Rain = 0
KLE1 200221Z 15014G19KT 35/17 A2981 RMK A01 T03510169  RH  034%=      5-min Rain = 0
KLE1 200222Z 15016KT 35/17 A2981 RMK A01 T03510170  RH  034%=      5-min Rain = 0
KLE1 200223Z 15015KT 35/17 A2981 RMK A01 T03510171  RH  034%=      5-min Rain = 0
KLE1 200224Z 15016KT 35/17 A2981 RMK A01 T03510172  RH  035%=      5-min Rain = 0
KLE1 200225Z 15016KT 35/17 A2981 RMK A01 T03510173  RH  035%=      5-min Rain = 0
KLE1 200226Z 15016KT 35/17 A2981 RMK A01 T03500173  RH  035%=      5-min Rain = 0
KLE1 200227Z 15017KT 35/17 A2981 RMK A01 T03500174  RH  035%=      5-min Rain = 0
KLE1 200228Z 15016KT 35/18 A2981 RMK A01 T03500175  RH  035%=      5-min Rain = 0
KLE1 200229Z 15016KT 35/18 A2981 RMK A01 T03500175  RH  036%=      5-min Rain = 0
KLE1 200230Z 15018KT 35/18 A2981 RMK A01 T03490175  RH  036%=      5-min Rain = 0
KLE1 200231Z 15017KT 35/18 A2981 RMK A01 T03490175  RH  036%=      5-min Rain = 0
KLE1 200232Z 15014KT 35/18 A2981 RMK A01 T03490176  RH  036%=      5-min Rain = 0
KLE1 200233Z 15017KT 35/18 A2981 RMK A01 T03490176  RH  036%=      5-min Rain = 0
KLE1 200234Z 16013KT 35/18 A2981 RMK A01 T03480176  RH  036%=      5-min Rain = 0
KLE1 200235Z 15013KT 35/18 A2981 RMK A01 T03470176  RH  036%=      5-min Rain = 0
KLE1 200236Z 15015KT 35/18 A2981 RMK A01 T03460176  RH  036%=      5-min Rain = 0
KLE1 200237Z 15013KT 35/18 A2981 RMK A01 T03460176  RH  037%=      5-min Rain = 0
KLE1 200238Z 15013KT 35/18 A2982 RMK A01 T03460176  RH  037%=      5-min Rain = 0
KLE1 200239Z 15016KT 35/18 A2981 RMK A01 T03450177  RH  037%=      5-min Rain = 0
KLE1 200240Z 15017KT 35/18 A2982 RMK A01 T03450177  RH  037%=      5-min Rain = 0
KLE1 200241Z 15019KT 35/18 A2982 RMK A01 T03450177  RH  037%=      5-min Rain = 0
KLE1 200242Z 15017KT 35/18 A2982 RMK A01 T03450177  RH  037%=      5-min Rain = 0
KLE1 200243Z 15017KT 35/18 A2982 RMK A01 T03460178  RH  037%=      5-min Rain = 0
KLE1 200244Z 15015KT 35/18 A2982 RMK A01 T03460178  RH  037%=      5-min Rain = 0
KLE1 200245Z 15016KT 35/18 A2982 RMK A01 T03450178  RH  037%=      5-min Rain = 0
KLE1 200246Z 15017KT 34/18 A2982 RMK A01 T03440178  RH  037%=      5-min Rain = 0
KLE1 200247Z 15016KT 34/18 A2982 RMK A01 T03440178  RH  037%=      5-min Rain = 0
KLE1 200248Z 16017KT 34/18 A2982 RMK A01 T03440178  RH  037%=      5-min Rain = 0
KLE1 200249Z 15017KT 34/18 A2982 RMK A01 T03440178  RH  037%=      5-min Rain = 0
KLE1 200250Z 15014G19KT 34/18 A2982 RMK A01 T03430178  RH  038%=      5-min Rain = 0
KLE1 200251Z 15019KT 34/18 A2982 RMK A01 T03430178  RH  038%=      5-min Rain = 0
KLE1 200252Z 15017KT 34/18 A2982 RMK A01 T03430177  RH  038%=      5-min Rain = 0
KLE1 200253Z 15016KT 34/18 A2982 RMK A01 T03430178  RH  038%=      5-min Rain = 0
KLE1 200254Z 15019KT 34/18 A2982 RMK A01 T03430178  RH  038%=      5-min Rain = 0
KLE1 200255Z 15017KT 34/18 A2982 RMK A01 T03420177  RH  038%=      5-min Rain = 0
KLE1 200256Z 15016KT 34/18 A2982 RMK A01 T03420177  RH  038%=      5-min Rain = 0
KLE1 200257Z 15015KT 34/18 A2982 RMK A01 T03420178  RH  038%=      5-min Rain = 0
KLE1 200258Z 15018KT 34/18 A2982 RMK A01 T03410177  RH  038%=      5-min Rain = 0
KLE1 200259Z 15015KT 34/18 A2982 RMK A01 T03410177  RH  038%=      5-min Rain = 0
KLE1 200300Z 15018KT 34/18 A2982 RMK A01 T03410177  RH  038%=      5-min Rain = 0
KLE1 200301Z 15016G21KT 34/18 A2982 RMK A01 T03410177  RH  038%=      5-min Rain = 0
KLE1 200302Z 15016KT 34/18 A2982 RMK A01 T03400177  RH  038%=      5-min Rain = 0
KLE1 200303Z 15016KT 34/18 A2982 RMK A01 T03400177  RH  038%=      5-min Rain = 0
KLE1 200304Z 15017KT 34/18 A2982 RMK A01 T03400177  RH  038%=      5-min Rain = 0
KLE1 200305Z 15016KT 34/18 A2982 RMK A01 T03390177  RH  038%=      5-min Rain = 0
KLE1 200306Z 16019KT 34/18 A2982 RMK A01 T03390177  RH  038%=      5-min Rain = 0
KLE1 200307Z 16018KT 34/18 A2982 RMK A01 T03390176  RH  038%=      5-min Rain = 0
KLE1 200308Z 15018KT 34/18 A2982 RMK A01 T03390176  RH  038%=      5-min Rain = 0
KLE1 200309Z 16017KT 34/18 A2983 RMK A01 T03390176  RH  038%=      5-min Rain = 0
KLE1 200310Z 15018KT 34/18 A2983 RMK A01 T03390176  RH  038%=      5-min Rain = 0
KLE1 200311Z 15018G23KT 34/18 A2983 RMK A01 T03390176  RH  038%=      5-min Rain = 0
KLE1 200312Z 16019KT 34/18 A2983 RMK A01 T03390175  RH  038%=      5-min Rain = 0
KLE1 200313Z 16019KT 34/18 A2982 RMK A01 T03390175  RH  038%=      5-min Rain = 0
KLE1 200314Z 16018KT 34/18 A2983 RMK A01 T03390175  RH  038%=      5-min Rain = 0
KLE1 200315Z 16016KT 34/18 A2983 RMK A01 T03390175  RH  038%=      5-min Rain = 0
KLE1 200316Z 16018KT 34/18 A2983 RMK A01 T03380175  RH  038%=      5-min Rain = 0
KLE1 200317Z 16014G19KT 34/18 A2983 RMK A01 T03380175  RH  038%=      5-min Rain = 0
KLE1 200318Z 15015G20KT 34/18 A2983 RMK A01 T03370175  RH  038%=      5-min Rain = 0
KLE1 200319Z 15019KT 34/18 A2983 RMK A01 T03370175  RH  038%=      5-min Rain = 0
KLE1 200320Z 15017KT 34/17 A2983 RMK A01 T03370174  RH  038%=      5-min Rain = 0
KLE1 200321Z 15016KT 34/17 A2983 RMK A01 T03370174  RH  038%=      5-min Rain = 0
KLE1 200322Z 16016KT 34/17 A2983 RMK A01 T03370174  RH  038%=      5-min Rain = 0
KLE1 200323Z 15018KT 34/17 A2983 RMK A01 T03360174  RH  038%=      5-min Rain = 0
KLE1 200324Z 16017KT 34/17 A2983 RMK A01 T03360174  RH  038%=      5-min Rain = 0
KLE1 200325Z 16017KT 34/17 A2983 RMK A01 T03360174  RH  038%=      5-min Rain = 0
KLE1 200326Z 16015KT 34/17 A2983 RMK A01 T03360174  RH  038%=      5-min Rain = 0
KLE1 200327Z 16016KT 34/17 A2983 RMK A01 T03360173  RH  038%=      5-min Rain = 0
KLE1 200328Z 16015KT 34/17 A2983 RMK A01 T03350173  RH  038%=      5-min Rain = 0
KLE1 200329Z 16017KT 34/17 A2983 RMK A01 T03350172  RH  038%=      5-min Rain = 0
KLE1 200330Z 16017KT 34/17 A2983 RMK A01 T03350172  RH  038%=      5-min Rain = 0
KLE1 200331Z 16017KT 34/17 A2983 RMK A01 T03350172  RH  038%=      5-min Rain = 0
KLE1 200332Z 16016KT 34/17 A2983 RMK A01 T03350172  RH  038%=      5-min Rain = 0
KLE1 200333Z 16017G22KT 33/17 A2984 RMK A01 T03340171  RH  038%=      5-min Rain = 0
KLE1 200334Z 16019KT 33/17 A2983 RMK A01 T03340171  RH  038%=      5-min Rain = 0
KLE1 200335Z 16019KT 33/17 A2984 RMK A01 T03340171  RH  038%=      5-min Rain = 0
KLE1 200336Z 15016KT 34/17 A2984 RMK A01 T03350170  RH  038%=      5-min Rain = 0
KLE1 200337Z 16018KT 34/17 A2984 RMK A01 T03350171  RH  038%=      5-min Rain = 0
KLE1 200338Z 16019KT 33/17 A2984 RMK A01 T03340171  RH  038%=      5-min Rain = 0
KLE1 200339Z 16014G19KT 33/17 A2984 RMK A01 T03340170  RH  038%=      5-min Rain = 0
KLE1 200340Z 16014KT 33/17 A2984 RMK A01 T03340170  RH  038%=      5-min Rain = 0
KLE1 200341Z 16015KT 33/17 A2984 RMK A01 T03330170  RH  038%=      5-min Rain = 0
KLE1 200342Z 16018KT 33/17 A2984 RMK A01 T03320170  RH  038%=      5-min Rain = 0
KLE1 200343Z 16016KT 33/17 A2984 RMK A01 T03320169  RH  038%=      5-min Rain = 0
KLE1 200344Z 16014KT 33/17 A2984 RMK A01 T03320169  RH  038%=      5-min Rain = 0
KLE1 200345Z 16017G22KT 33/17 A2984 RMK A01 T03320169  RH  038%=      5-min Rain = 0
KLE1 200346Z 16017KT 33/17 A2984 RMK A01 T03320169  RH  038%=      5-min Rain = 0
KLE1 200347Z 15014KT 33/17 A2984 RMK A01 T03320169  RH  038%=      5-min Rain = 0
KLE1 200348Z 16015KT 33/17 A2984 RMK A01 T03320168  RH  038%=      5-min Rain = 0
KLE1 200349Z 15016KT 33/17 A2984 RMK A01 T03320168  RH  038%=      5-min Rain = 0
KLE1 200350Z 15015KT 33/17 A2984 RMK A01 T03310168  RH  038%=      5-min Rain = 0
KLE1 200351Z 16013KT 33/17 A2984 RMK A01 T03320168  RH  038%=      5-min Rain = 0
KLE1 200352Z 16015KT 33/17 A2984 RMK A01 T03300168  RH  038%=      5-min Rain = 0
KLE1 200353Z 16016KT 33/17 A2984 RMK A01 T03300168  RH  038%=      5-min Rain = 0
KLE1 200354Z 16016KT 33/17 A2984 RMK A01 T03300168  RH  038%=      5-min Rain = 0
KLE1 200355Z 16015KT 33/17 A2984 RMK A01 T03300167  RH  038%=      5-min Rain = 0
KLE1 200356Z 16017KT 33/17 A2984 RMK A01 T03300167  RH  038%=      5-min Rain = 0
KLE1 200357Z 16014KT 33/17 A2984 RMK A01 T03300167  RH  038%=      5-min Rain = 0
KLE1 200358Z 16018KT 33/17 A2984 RMK A01 T03300166  RH  038%=      5-min Rain = 0
KLE1 200359Z 16016KT 33/17 A2984 RMK A01 T03300166  RH  037%=      5-min Rain = 0
KLE1 200400Z 16013KT 33/17 A2985 RMK A01 T03310166  RH  037%=      5-min Rain = 0
KLE1 200401Z 16015KT 33/17 A2984 RMK A01 T03300165  RH  037%=      5-min Rain = 0
KLE1 200402Z 16017KT 33/17 A2984 RMK A01 T03300165  RH  037%=      5-min Rain = 0
KLE1 200403Z 16014KT 33/17 A2985 RMK A01 T03300165  RH  037%=      5-min Rain = 0
KLE1 200404Z 16016G21KT 33/16 A2985 RMK A01 T03300164  RH  037%=      5-min Rain = 0
KLE1 200405Z 16017KT 33/16 A2985 RMK A01 T03300164  RH  037%=      5-min Rain = 0
KLE1 200406Z 16015KT 33/16 A2985 RMK A01 T03300164  RH  037%=      5-min Rain = 0
KLE1 200407Z 16017KT 33/16 A2985 RMK A01 T03290163  RH  037%=      5-min Rain = 0
KLE1 200408Z 16014KT 33/16 A2985 RMK A01 T03300163  RH  037%=      5-min Rain = 0
KLE1 200409Z 16013KT 33/16 A2985 RMK A01 T03300163  RH  037%=      5-min Rain = 0
KLE1 200410Z 15014KT 33/16 A2985 RMK A01 T03290163  RH  037%=      5-min Rain = 0
KLE1 200411Z 16014G19KT 33/16 A2985 RMK A01 T03280163  RH  037%=      5-min Rain = 0
KLE1 200412Z 15016G22KT 33/16 A2985 RMK A01 T03280163  RH  037%=      5-min Rain = 0
KLE1 200413Z 16013KT 33/16 A2985 RMK A01 T03280163  RH  037%=      5-min Rain = 0
KLE1 200414Z 16014KT 33/16 A2985 RMK A01 T03270162  RH  037%=      5-min Rain = 0
KLE1 200415Z 16015KT 33/16 A2985 RMK A01 T03270162  RH  037%=      5-min Rain = 0
KLE1 200416Z 16017KT 33/16 A2985 RMK A01 T03270162  RH  037%=      5-min Rain = 0
KLE1 200417Z 16016KT 33/16 A2985 RMK A01 T03270161  RH  037%=      5-min Rain = 0
KLE1 200418Z 16015KT 33/16 A2985 RMK A01 T03280162  RH  037%=      5-min Rain = 0
KLE1 200419Z 16015KT 33/16 A2985 RMK A01 T03270161  RH  037%=      5-min Rain = 0
KLE1 200420Z 15015KT 33/16 A2985 RMK A01 T03270162  RH  037%=      5-min Rain = 0
KLE1 200421Z 16013KT 33/16 A2985 RMK A01 T03270162  RH  037%=      5-min Rain = 0
KLE1 200422Z 15012KT 33/16 A2985 RMK A01 T03260162  RH  037%=      5-min Rain = 0
KLE1 200423Z 15013KT 33/16 A2985 RMK A01 T03260161  RH  037%=      5-min Rain = 0
KLE1 200424Z 16013KT 33/16 A2985 RMK A01 T03250161  RH  037%=      5-min Rain = 0
KLE1 200425Z 15011KT 33/16 A2985 RMK A01 T03250161  RH  037%=      5-min Rain = 0
KLE1 200426Z 16014KT 33/16 A2985 RMK A01 T03250161  RH  038%=      5-min Rain = 0
KLE1 200427Z 15012KT 32/16 A2985 RMK A01 T03240161  RH  037%=      5-min Rain = 0
KLE1 200428Z 15014KT 32/16 A2985 RMK A01 T03240161  RH  038%=      5-min Rain = 0
KLE1 200429Z 15014KT 32/16 A2985 RMK A01 T03240161  RH  038%=      5-min Rain = 0
KLE1 200430Z 15013KT 32/16 A2985 RMK A01 T03240161  RH  038%=      5-min Rain = 0
KLE1 200431Z 15014KT 32/16 A2985 RMK A01 T03240161  RH  038%=      5-min Rain = 0
KLE1 200432Z 15013KT 32/16 A2985 RMK A01 T03230161  RH  038%=      5-min Rain = 0
KLE1 200433Z 15014KT 32/16 A2985 RMK A01 T03230160  RH  038%=      5-min Rain = 0
KLE1 200434Z 15013KT 32/16 A2985 RMK A01 T03230160  RH  038%=      5-min Rain = 0
KLE1 200435Z 15013G18KT 32/16 A2985 RMK A01 T03230160  RH  038%=      5-min Rain = 0
KLE1 200436Z 15014KT 32/16 A2985 RMK A01 T03230160  RH  038%=      5-min Rain = 0
KLE1 200437Z 15012KT 32/16 A2985 RMK A01 T03230160  RH  038%=      5-min Rain = 0
KLE1 200438Z 15013KT 32/16 A2985 RMK A01 T03220160  RH  038%=      5-min Rain = 0
KLE1 200439Z 15011KT 32/16 A2985 RMK A01 T03220160  RH  038%=      5-min Rain = 0
KLE1 200440Z 16013KT 32/16 A2985 RMK A01 T03210160  RH  038%=      5-min Rain = 0
KLE1 200441Z 15013KT 32/16 A2985 RMK A01 T03200160  RH  038%=      5-min Rain = 0
KLE1 200442Z 15011KT 32/16 A2985 RMK A01 T03200159  RH  038%=      5-min Rain = 0
KLE1 200443Z 16013KT 32/16 A2985 RMK A01 T03200160  RH  038%=      5-min Rain = 0
KLE1 200444Z 15011KT 32/16 A2985 RMK A01 T03200160  RH  038%=      5-min Rain = 0
KLE1 200445Z 16013KT 32/16 A2985 RMK A01 T03200160  RH  038%=      5-min Rain = 0
KLE1 200446Z 16012KT 32/16 A2985 RMK A01 T03190159  RH  038%=      5-min Rain = 0
KLE1 200447Z 15012KT 32/16 A2985 RMK A01 T03190159  RH  038%=      5-min Rain = 0
KLE1 200448Z 15011KT 32/16 A2985 RMK A01 T03190159  RH  038%=      5-min Rain = 0
KLE1 200449Z 15010KT 32/16 A2985 RMK A01 T03180159  RH  038%=      5-min Rain = 0
KLE1 200450Z 15013KT 32/16 A2985 RMK A01 T03180159  RH  038%=      5-min Rain = 0
KLE1 200451Z 15014KT 32/16 A2985 RMK A01 T03180158  RH  038%=      5-min Rain = 0
KLE1 200452Z 15012KT 32/16 A2986 RMK A01 T03180158  RH  038%=      5-min Rain = 0
KLE1 200453Z 15013KT 32/16 A2986 RMK A01 T03180158  RH  038%=      5-min Rain = 0
KLE1 200454Z 15011KT 32/16 A2986 RMK A01 T03180158  RH  038%=      5-min Rain = 0
KLE1 200455Z 15013KT 32/16 A2986 RMK A01 T03180158  RH  038%=      5-min Rain = 0
KLE1 200456Z 15011KT 32/16 A2986 RMK A01 T03180158  RH  038%=      5-min Rain = 0
KLE1 200457Z 15012KT 32/16 A2986 RMK A01 T03180158  RH  038%=      5-min Rain = 0
KLE1 200458Z 15011KT 32/16 A2986 RMK A01 T03180158  RH  038%=      5-min Rain = 0
KLE1 200459Z 16011KT 32/16 A2986 RMK A01 T03180158  RH  038%=      5-min Rain = 0

Page generated in 0.1217 seconds.